Observation data for Palo Duro Reservoir 1NW on 02/23/2019      Previous  Date  Next       Current Mesonet Observations  Soil Data  Daily Summary Page  Observations in Plain Language
KPD4 230600Z 15014KT 04/03 A2974 RMK A01 T00430028  RH  090%=      5-min Rain = 0
KPD4 230601Z 16015KT 04/03 A2974 RMK A01 T00430028  RH  090%=      5-min Rain = 0
KPD4 230602Z 16013KT 04/03 A2974 RMK A01 T00430028  RH  090%=      5-min Rain = 0
KPD4 230603Z 16011KT 04/03 A2974 RMK A01 T00430028  RH  090%=      5-min Rain = 0
KPD4 230604Z 16012KT 04/03 A2974 RMK A01 T00430028  RH  090%=      5-min Rain = 0
KPD4 230605Z 17012KT 04/03 A2974 RMK A01 T00430028  RH  090%=      5-min Rain = 0
KPD4 230606Z 17012KT 04/03 A2974 RMK A01 T00430028  RH  090%=      5-min Rain = 0
KPD4 230607Z 17011KT 04/03 A2974 RMK A01 T00430028  RH  090%=      5-min Rain = 0
KPD4 230608Z 17015KT 04/03 A2974 RMK A01 T00430028  RH  090%=      5-min Rain = 0
KPD4 230609Z 17013KT 04/03 A2973 RMK A01 T00440028  RH  090%=      5-min Rain = 0
KPD4 230610Z 17010KT 04/03 A2973 RMK A01 T00440029  RH  090%=      5-min Rain = 0
KPD4 230611Z 17010KT 04/03 A2973 RMK A01 T00440028  RH  090%=      5-min Rain = 0
KPD4 230612Z 17012KT 04/03 A2973 RMK A01 T00440029  RH  090%=      5-min Rain = 0
KPD4 230613Z 17010KT 04/03 A2973 RMK A01 T00440029  RH  090%=      5-min Rain = 0
KPD4 230614Z 17011KT 04/03 A2973 RMK A01 T00440028  RH  090%=      5-min Rain = 0
KPD4 230615Z 17012KT 04/03 A2973 RMK A01 T00440028  RH  090%=      5-min Rain = 0
KPD4 230616Z 18011KT 04/03 A2973 RMK A01 T00440029  RH  090%=      5-min Rain = 0
KPD4 230617Z 18010KT 05/03 A2973 RMK A01 T00450029  RH  090%=      5-min Rain = 0
KPD4 230618Z 18010KT 05/03 A2972 RMK A01 T00450029  RH  089%=      5-min Rain = 0
KPD4 230619Z 18008KT 04/03 A2973 RMK A01 T00440029  RH  089%=      5-min Rain = 0
KPD4 230620Z 19007KT 04/03 A2972 RMK A01 T00440028  RH  089%=      5-min Rain = 0
KPD4 230621Z 19006KT 05/03 A2972 RMK A01 T00450029  RH  089%=      5-min Rain = 0
KPD4 230622Z 19008KT 05/03 A2973 RMK A01 T00450029  RH  089%=      5-min Rain = 0
KPD4 230623Z 20012KT 05/03 A2974 RMK A01 T00450029  RH  089%=      5-min Rain = 0
KPD4 230624Z 20015KT 05/03 A2976 RMK A01 T00450029  RH  089%=      5-min Rain = 0
KPD4 230625Z 20018KT 05/03 A2976 RMK A01 T00460029  RH  089%=      5-min Rain = 0
KPD4 230626Z 19011KT 05/03 A2975 RMK A01 T00460029  RH  089%=      5-min Rain = 0
KPD4 230627Z 19014KT 05/03 A2975 RMK A01 T00460029  RH  089%=      5-min Rain = 0
KPD4 230628Z 20015KT 05/03 A2975 RMK A01 T00460029  RH  089%=      5-min Rain = 0
KPD4 230629Z 20013KT 05/03 A2975 RMK A01 T00460029  RH  089%=      5-min Rain = 0
KPD4 230630Z 20012KT 05/03 A2975 RMK A01 T00460029  RH  089%=      5-min Rain = 0
KPD4 230631Z 20011KT 05/03 A2974 RMK A01 T00470030  RH  089%=      5-min Rain = 0
KPD4 230632Z 20012KT 05/03 A2974 RMK A01 T00470029  RH  088%=      5-min Rain = 0
KPD4 230633Z 19011KT 05/03 A2974 RMK A01 T00470030  RH  088%=      5-min Rain = 0
KPD4 230634Z 18009KT 05/03 A2973 RMK A01 T00470029  RH  088%=      5-min Rain = 0
KPD4 230635Z 19010KT 05/03 A2973 RMK A01 T00470029  RH  088%=      5-min Rain = 0
KPD4 230636Z 18010KT 05/03 A2973 RMK A01 T00470030  RH  088%=      5-min Rain = 0
KPD4 230637Z 18010KT 05/03 A2973 RMK A01 T00470030  RH  089%=      5-min Rain = 0
KPD4 230638Z 18009KT 05/03 A2973 RMK A01 T00470029  RH  089%=      5-min Rain = 0
KPD4 230639Z 18009KT 05/03 A2973 RMK A01 T00470029  RH  089%=      5-min Rain = 0
KPD4 230640Z 18011KT 05/03 A2973 RMK A01 T00470029  RH  089%=      5-min Rain = 0
KPD4 230641Z 18011KT 05/03 A2973 RMK A01 T00470030  RH  089%=      5-min Rain = 0
KPD4 230642Z 18012KT 05/03 A2973 RMK A01 T00470030  RH  089%=      5-min Rain = 0
KPD4 230643Z 19011KT 05/03 A2973 RMK A01 T00470030  RH  089%=      5-min Rain = 0
KPD4 230644Z 18011KT 05/03 A2973 RMK A01 T00470029  RH  089%=      5-min Rain = 0
KPD4 230645Z 18012KT 05/03 A2973 RMK A01 T00470030  RH  089%=      5-min Rain = 0
KPD4 230646Z 18012KT 05/03 A2973 RMK A01 T00470030  RH  089%=      5-min Rain = 0
KPD4 230647Z 18012KT 05/03 A2973 RMK A01 T00470030  RH  088%=      5-min Rain = 0
KPD4 230648Z 18012KT 05/03 A2973 RMK A01 T00480030  RH  088%=      5-min Rain = 0
KPD4 230649Z 18013KT 05/03 A2973 RMK A01 T00470030  RH  088%=      5-min Rain = 0
KPD4 230650Z 18012KT 05/03 A2973 RMK A01 T00480030  RH  088%=      5-min Rain = 0
KPD4 230651Z 19013KT 05/03 A2973 RMK A01 T00480030  RH  088%=      5-min Rain = 0
KPD4 230652Z 19012KT 05/03 A2973 RMK A01 T00480030  RH  088%=      5-min Rain = 0
KPD4 230653Z 19012KT 05/03 A2973 RMK A01 T00480030  RH  088%=      5-min Rain = 0
KPD4 230654Z 18011KT 05/03 A2973 RMK A01 T00480030  RH  088%=      5-min Rain = 0
KPD4 230655Z 18012G17KT 05/03 A2973 RMK A01 T00480030  RH  088%=      5-min Rain = 0
KPD4 230656Z 18014KT 05/03 A2973 RMK A01 T00480030  RH  088%=      5-min Rain = 0
KPD4 230657Z 18011KT 05/03 A2973 RMK A01 T00480031  RH  088%=      5-min Rain = 0
KPD4 230658Z 18011KT 05/03 A2973 RMK A01 T00480031  RH  088%=      5-min Rain = 0
KPD4 230659Z 18011KT 05/03 A2973 RMK A01 T00480031  RH  088%=      5-min Rain = 0
KPD4 230700Z 18011KT 05/03 A2973 RMK A01 T00480031  RH  088%=      5-min Rain = 0
KPD4 230701Z 17009KT 05/03 A2972 RMK A01 T00480031  RH  088%=      5-min Rain = 0
KPD4 230702Z 18010KT 05/03 A2972 RMK A01 T00480031  RH  089%=      5-min Rain = 0
KPD4 230703Z 18011KT 05/03 A2972 RMK A01 T00480031  RH  089%=      5-min Rain = 0
KPD4 230704Z 18007KT 05/03 A2971 RMK A01 T00480031  RH  089%=      5-min Rain = 0
KPD4 230705Z 17006KT 05/03 A297 RMK A01 T00480032  RH  089%=      5-min Rain = 0
KPD4 230706Z 17005KT 05/03 A297 RMK A01 T00480031  RH  089%=      5-min Rain = 0
KPD4 230707Z 17006KT 05/03 A2969 RMK A01 T00480032  RH  089%=      5-min Rain = 0
KPD4 230708Z 16004KT 05/03 A2969 RMK A01 T00480032  RH  089%=      5-min Rain = 0
KPD4 230709Z 16004KT 05/03 A2969 RMK A01 T00480031  RH  089%=      5-min Rain = 0
KPD4 230710Z 15005KT 05/03 A2968 RMK A01 T00470031  RH  089%=      5-min Rain = 0
KPD4 230711Z 14005KT 05/03 A2968 RMK A01 T00470031  RH  089%=      5-min Rain = 0
KPD4 230712Z 14006KT 05/03 A2968 RMK A01 T00470031  RH  089%=      5-min Rain = 0
KPD4 230713Z 15007KT 05/03 A2968 RMK A01 T00470031  RH  089%=      5-min Rain = 0
KPD4 230714Z 15010KT 05/03 A2969 RMK A01 T00460030  RH  090%=      5-min Rain = 0
KPD4 230715Z 15012KT 05/03 A2969 RMK A01 T00450030  RH  090%=      5-min Rain = 0
KPD4 230716Z 15012KT 05/03 A2969 RMK A01 T00450031  RH  090%=      5-min Rain = 0
KPD4 230717Z 14010KT 05/03 A2969 RMK A01 T00450031  RH  091%=      5-min Rain = 0
KPD4 230718Z 15010KT 05/03 A2969 RMK A01 T00450031  RH  091%=      5-min Rain = 0
KPD4 230719Z 14010KT 05/03 A2969 RMK A01 T00450031  RH  091%=      5-min Rain = 0
KPD4 230720Z 14009KT 05/03 A2969 RMK A01 T00450032  RH  091%=      5-min Rain = 0
KPD4 230721Z 15010KT 05/03 A2969 RMK A01 T00450032  RH  091%=      5-min Rain = 0
KPD4 230722Z 15009KT 05/03 A2969 RMK A01 T00460032  RH  091%=      5-min Rain = 0
KPD4 230723Z 15009KT 05/03 A2969 RMK A01 T00460032  RH  091%=      5-min Rain = 0
KPD4 230724Z 15007KT 05/03 A2969 RMK A01 T00460032  RH  091%=      5-min Rain = 0
KPD4 230725Z 15007KT 05/03 A2969 RMK A01 T00460032  RH  091%=      5-min Rain = 0
KPD4 230726Z 14008KT 05/03 A2968 RMK A01 T00460032  RH  091%=      5-min Rain = 0
KPD4 230727Z 14009KT 05/03 A2968 RMK A01 T00460032  RH  091%=      5-min Rain = 0
KPD4 230728Z 14007KT 05/03 A2968 RMK A01 T00460032  RH  091%=      5-min Rain = 0
KPD4 230729Z 14006KT 05/03 A2968 RMK A01 T00460032  RH  091%=      5-min Rain = 0
KPD4 230730Z 14007KT 05/03 A2968 RMK A01 T00470032  RH  091%=      5-min Rain = 0
KPD4 230731Z 14007KT 05/03 A2968 RMK A01 T00460032  RH  091%=      5-min Rain = 0
KPD4 230732Z 15007KT 05/03 A2968 RMK A01 T00460032  RH  090%=      5-min Rain = 0
KPD4 230733Z 15006KT 05/03 A2968 RMK A01 T00470032  RH  090%=      5-min Rain = 0
KPD4 230734Z 15007KT 05/03 A2969 RMK A01 T00470032  RH  090%=      5-min Rain = 0
KPD4 230735Z 15009KT 05/03 A2969 RMK A01 T00470032  RH  090%=      5-min Rain = 0
KPD4 230736Z 16009KT 05/03 A2969 RMK A01 T00470032  RH  090%=      5-min Rain = 0
KPD4 230737Z 16008KT 05/03 A297 RMK A01 T00470032  RH  090%=      5-min Rain = 0
KPD4 230738Z 17009KT 05/03 A297 RMK A01 T00470033  RH  090%=      5-min Rain = 0
KPD4 230739Z 16008KT 05/03 A2969 RMK A01 T00470033  RH  090%=      5-min Rain = 0
KPD4 230740Z 15007KT 05/03 A2969 RMK A01 T00470033  RH  090%=      5-min Rain = 0
KPD4 230741Z 14007KT 05/03 A2969 RMK A01 T00470032  RH  090%=      5-min Rain = 0
KPD4 230742Z 13007KT 05/03 A2968 RMK A01 T00470033  RH  090%=      5-min Rain = 0
KPD4 230743Z 13009KT 05/03 A2968 RMK A01 T00470032  RH  090%=      5-min Rain = 0
KPD4 230744Z 13008KT 05/03 A2968 RMK A01 T00470033  RH  090%=      5-min Rain = 0
KPD4 230745Z 13009KT 05/03 A2968 RMK A01 T00470032  RH  090%=      5-min Rain = 0
KPD4 230746Z 13008KT 05/03 A2968 RMK A01 T00470032  RH  090%=      5-min Rain = 0
KPD4 230747Z 12009KT 05/03 A2968 RMK A01 T00470033  RH  090%=      5-min Rain = 0
KPD4 230748Z 12008KT 05/03 A2968 RMK A01 T00470033  RH  090%=      5-min Rain = 0
KPD4 230749Z 10006KT 05/03 A2967 RMK A01 T00470032  RH  090%=      5-min Rain = 0
KPD4 230750Z 10007KT 05/03 A2967 RMK A01 T00470032  RH  090%=      5-min Rain = 0
KPD4 230751Z 10009KT 05/03 A2966 RMK A01 T00470033  RH  090%=      5-min Rain = 0
KPD4 230752Z 10008KT 05/03 A2966 RMK A01 T00470032  RH  090%=      5-min Rain = 0
KPD4 230753Z 10009KT 05/03 A2966 RMK A01 T00470033  RH  090%=      5-min Rain = 0
KPD4 230754Z 10009KT 05/03 A2966 RMK A01 T00470032  RH  090%=      5-min Rain = 0
KPD4 230755Z 10011KT 05/03 A2966 RMK A01 T00470033  RH  091%=      5-min Rain = 0
KPD4 230756Z 11008KT 05/03 A2966 RMK A01 T00470033  RH  091%=      5-min Rain = 0
KPD4 230757Z 12009KT 05/03 A2966 RMK A01 T00470033  RH  091%=      5-min Rain = 0
KPD4 230758Z 11009KT 05/03 A2966 RMK A01 T00460033  RH  091%=      5-min Rain = 0
KPD4 230759Z 11009KT 05/03 A2966 RMK A01 T00460034  RH  092%=      5-min Rain = 0
KPD4 230800Z 09008KT 05/03 A2966 RMK A01 T00460034  RH  092%=      5-min Rain = 0
KPD4 230801Z 08010KT 05/03 A2965 RMK A01 T00460034  RH  092%=      5-min Rain = 0
KPD4 230802Z 08010KT 05/03 A2965 RMK A01 T00450034  RH  092%=      5-min Rain = 0
KPD4 230803Z 09011KT 05/04 A2965 RMK A01 T00460035  RH  093%=      5-min Rain = 0
KPD4 230804Z 10012KT 05/04 A2965 RMK A01 T00450035  RH  093%=      5-min Rain = 0
KPD4 230805Z 10010KT 05/04 A2965 RMK A01 T00450035  RH  093%=      5-min Rain = 0
KPD4 230806Z 10008KT 05/04 A2965 RMK A01 T00450035  RH  093%=      5-min Rain = 0
KPD4 230807Z 09009KT 05/04 A2965 RMK A01 T00450035  RH  093%=      5-min Rain = 0
KPD4 230808Z 10008KT 05/04 A2965 RMK A01 T00450035  RH  093%=      5-min Rain = 0
KPD4 230809Z 11010KT 05/04 A2966 RMK A01 T00450036  RH  094%=      5-min Rain = 0
KPD4 230810Z 12009KT 05/04 A2966 RMK A01 T00450036  RH  094%=      5-min Rain = 0
KPD4 230811Z 12008KT 05/04 A2967 RMK A01 T00450036  RH  094%=      5-min Rain = 0
KPD4 230812Z 12009KT 05/04 A2967 RMK A01 T00450037  RH  094%=      5-min Rain = 0
KPD4 230813Z 13008KT 05/04 A2967 RMK A01 T00450037  RH  095%=      5-min Rain = 0
KPD4 230814Z 13009KT 05/04 A2967 RMK A01 T00450037  RH  095%=      5-min Rain = 0
KPD4 230815Z 13011KT 04/04 A2967 RMK A01 T00440037  RH  095%=      5-min Rain = 0
KPD4 230816Z 12009KT 04/04 A2967 RMK A01 T00440037  RH  095%=      5-min Rain = 0
KPD4 230817Z 12007KT 04/04 A2967 RMK A01 T00440037  RH  095%=      5-min Rain = 0
KPD4 230818Z 12007KT 04/04 A2966 RMK A01 T00440038  RH  096%=      5-min Rain = 0
KPD4 230819Z 12008KT 04/04 A2966 RMK A01 T00440037  RH  096%=      5-min Rain = 0
KPD4 230820Z 12007KT 04/04 A2966 RMK A01 T00440038  RH  096%=      5-min Rain = 0
KPD4 230821Z 12008KT 04/04 A2967 RMK A01 T00440038  RH  096%=      5-min Rain = 0
KPD4 230822Z 13010KT 04/04 A2967 RMK A01 T00440038  RH  096%=      5-min Rain = 0
KPD4 230823Z 13009KT 04/04 A2967 RMK A01 T00430038  RH  097%=      5-min Rain = 0
KPD4 230824Z 14008KT 04/04 A2967 RMK A01 T00430038  RH  097%=      5-min Rain = 0
KPD4 230825Z 14008KT 04/04 A2967 RMK A01 T00430039  RH  097%=      5-min Rain = 0
KPD4 230826Z 15008KT 04/04 A2968 RMK A01 T00430039  RH  097%=      5-min Rain = 0
KPD4 230827Z 17008KT 04/04 A2969 RMK A01 T00430039  RH  097%=      5-min Rain = 0.01
KPD4 230828Z 16007KT 04/04 A2969 RMK A01 T00430039  RH  097%=      5-min Rain = 0
KPD4 230829Z 18004KT 04/04 A2968 RMK A01 T00430040  RH  097%=      5-min Rain = 0
KPD4 230830Z 18005KT 04/04 A2969 RMK A01 T00430040  RH  098%=      5-min Rain = 0
KPD4 230831Z 21002KT 04/04 A2967 RMK A01 T00430040  RH  098%=      5-min Rain = 0.01
KPD4 230832Z 22003KT 04/04 A2967 RMK A01 T00430040  RH  098%=      5-min Rain = 0
KPD4 230833Z 17001KT 04/04 A2967 RMK A01 T00430040  RH  098%=      5-min Rain = 0
KPD4 230834Z 14004KT 04/04 A2967 RMK A01 T00430040  RH  098%=      5-min Rain = 0
KPD4 230835Z 13007KT 04/04 A2967 RMK A01 T00430040  RH  098%=      5-min Rain = 0
KPD4 230836Z 09008KT 04/04 A2966 RMK A01 T00430040  RH  098%=      5-min Rain = 0
KPD4 230837Z 10009KT 04/04 A2966 RMK A01 T00430040  RH  098%=      5-min Rain = 0
KPD4 230838Z 11005KT 04/04 A2966 RMK A01 T00430040  RH  098%=      5-min Rain = 0
KPD4 230839Z 13006KT 04/04 A2966 RMK A01 T00430040  RH  098%=      5-min Rain = 0
KPD4 230840Z 14007KT 04/04 A2968 RMK A01 T00430040  RH  098%=      5-min Rain = 0
KPD4 230841Z 15006KT 04/04 A2968 RMK A01 T00430040  RH  098%=      5-min Rain = 0
KPD4 230842Z 14008KT 04/04 A2968 RMK A01 T00430040  RH  098%=      5-min Rain = 0
KPD4 230843Z 14007KT 04/04 A2967 RMK A01 T00430041  RH  098%=      5-min Rain = 0
KPD4 230844Z 11006KT 04/04 A2967 RMK A01 T00430040  RH  098%=      5-min Rain = 0
KPD4 230845Z 11006KT 04/04 A2967 RMK A01 T00430041  RH  098%=      5-min Rain = 0
KPD4 230846Z 15005KT 04/04 A2967 RMK A01 T00430040  RH  098%=      5-min Rain = 0.01
KPD4 230847Z 17007KT 04/04 A2969 RMK A01 T00430041  RH  098%=      5-min Rain = 0
KPD4 230848Z 19008KT 04/04 A2969 RMK A01 T00430040  RH  098%=      5-min Rain = 0
KPD4 230849Z 20009KT 04/04 A2969 RMK A01 T00430041  RH  098%=      5-min Rain = 0
KPD4 230850Z 21007KT 04/04 A2969 RMK A01 T00430041  RH  098%=      5-min Rain = 0
KPD4 230851Z 18005KT 04/04 A2968 RMK A01 T00430041  RH  098%=      5-min Rain = 0.01
KPD4 230852Z 15004KT 04/04 A2967 RMK A01 T00430041  RH  098%=      5-min Rain = 0
KPD4 230853Z 15005KT 04/04 A2968 RMK A01 T00430041  RH  098%=      5-min Rain = 0
KPD4 230854Z 15006KT 04/04 A2968 RMK A01 T00430041  RH  098%=      5-min Rain = 0
KPD4 230855Z 14007KT 04/04 A2968 RMK A01 T00430041  RH  098%=      5-min Rain = 0.01
KPD4 230856Z 14007KT 04/04 A2968 RMK A01 T00430041  RH  098%=      5-min Rain = 0
KPD4 230857Z 13006KT 04/04 A2968 RMK A01 T00430041  RH  098%=      5-min Rain = 0
KPD4 230858Z 13005KT 04/04 A2968 RMK A01 T00430041  RH  098%=      5-min Rain = 0
KPD4 230859Z 14006KT 04/04 A2968 RMK A01 T00430041  RH  098%=      5-min Rain = 0
KPD4 230900Z 13007KT 04/04 A2968 RMK A01 T00430041  RH  098%=      5-min Rain = 0.01
KPD4 230901Z 13008KT 04/04 A2968 RMK A01 T00430041  RH  098%=      5-min Rain = 0
KPD4 230902Z 13008KT 04/04 A2968 RMK A01 T00430041  RH  098%=      5-min Rain = 0
KPD4 230903Z 13009KT 04/04 A2968 RMK A01 T00430041  RH  098%=      5-min Rain = 0
KPD4 230904Z 13007KT 04/04 A2968 RMK A01 T00430041  RH  098%=      5-min Rain = 0
KPD4 230905Z 13007KT 04/04 A2968 RMK A01 T00430041  RH  099%=      5-min Rain = 0
KPD4 230906Z 13007KT 04/04 A2968 RMK A01 T00430041  RH  099%=      5-min Rain = 0.01
KPD4 230907Z 12006KT 04/04 A2968 RMK A01 T00430041  RH  099%=      5-min Rain = 0
KPD4 230908Z 13008KT 04/04 A2967 RMK A01 T00430041  RH  099%=      5-min Rain = 0
KPD4 230909Z 13006KT 04/04 A2967 RMK A01 T00430041  RH  099%=      5-min Rain = 0
KPD4 230910Z 13005KT 04/04 A2967 RMK A01 T00430041  RH  099%=      5-min Rain = 0
KPD4 230911Z 13004KT 04/04 A2967 RMK A01 T00430041  RH  099%=      5-min Rain = 0
KPD4 230912Z 14005KT 04/04 A2967 RMK A01 T00430041  RH  099%=      5-min Rain = 0
KPD4 230913Z 17004KT 04/04 A2967 RMK A01 T00430041  RH  099%=      5-min Rain = 0.01
KPD4 230914Z 16003KT 04/04 A2967 RMK A01 T00430041  RH  099%=      5-min Rain = 0
KPD4 230915Z 17003KT 04/04 A2967 RMK A01 T00430041  RH  099%=      5-min Rain = 0
KPD4 230916Z 17003KT 04/04 A2967 RMK A01 T00430041  RH  099%=      5-min Rain = 0
KPD4 230917Z 17002KT 04/04 A2966 RMK A01 T00430041  RH  099%=      5-min Rain = 0
KPD4 230918Z 15002KT 04/04 A2966 RMK A01 T00430041  RH  099%=      5-min Rain = 0
KPD4 230919Z 14001KT 04/04 A2966 RMK A01 T00430041  RH  099%=      5-min Rain = 0.01
KPD4 230920Z 12002KT 04/04 A2966 RMK A01 T00430041  RH  099%=      5-min Rain = 0
KPD4 230921Z 11003KT 04/04 A2966 RMK A01 T00430041  RH  099%=      5-min Rain = 0
KPD4 230922Z 11003KT 04/04 A2966 RMK A01 T00430041  RH  099%=      5-min Rain = 0
KPD4 230923Z 13003KT 04/04 A2966 RMK A01 T00430041  RH  099%=      5-min Rain = 0
KPD4 230924Z 13003KT 04/04 A2966 RMK A01 T00430041  RH  099%=      5-min Rain = 0
KPD4 230925Z 14003KT 04/04 A2966 RMK A01 T00430041  RH  099%=      5-min Rain = 0
KPD4 230926Z 14003KT 04/04 A2966 RMK A01 T00430041  RH  099%=      5-min Rain = 0
KPD4 230927Z 14002KT 04/04 A2965 RMK A01 T00430041  RH  099%=      5-min Rain = 0.01
KPD4 230928Z 09001KT 04/04 A2965 RMK A01 T00430041  RH  099%=      5-min Rain = 0
KPD4 230929Z 11002KT 04/04 A2965 RMK A01 T00430041  RH  099%=      5-min Rain = 0.01
KPD4 230930Z 13001KT 04/04 A2965 RMK A01 T00430041  RH  099%=      5-min Rain = 0
KPD4 230931Z 14002KT 04/04 A2965 RMK A01 T00430041  RH  099%=      5-min Rain = 0
KPD4 230932Z 13003KT 04/04 A2965 RMK A01 T00430041  RH  099%=      5-min Rain = 0
KPD4 230933Z 14005KT 04/04 A2965 RMK A01 T00430041  RH  099%=      5-min Rain = 0
KPD4 230934Z 13005KT 04/04 A2965 RMK A01 T00430041  RH  099%=      5-min Rain = 0
KPD4 230935Z 12005KT 04/04 A2964 RMK A01 T00430042  RH  099%=      5-min Rain = 0
KPD4 230936Z 11004KT 04/04 A2964 RMK A01 T00440042  RH  099%=      5-min Rain = 0
KPD4 230937Z 11005KT 04/04 A2964 RMK A01 T00440042  RH  099%=      5-min Rain = 0
KPD4 230938Z 09005KT 04/04 A2964 RMK A01 T00440042  RH  099%=      5-min Rain = 0
KPD4 230939Z 09006KT 04/04 A2963 RMK A01 T00440042  RH  099%=      5-min Rain = 0
KPD4 230940Z 09007KT 04/04 A2963 RMK A01 T00430041  RH  099%=      5-min Rain = 0
KPD4 230941Z 10006KT 04/04 A2963 RMK A01 T00440042  RH  099%=      5-min Rain = 0
KPD4 230942Z 10005KT 04/04 A2963 RMK A01 T00440042  RH  099%=      5-min Rain = 0
KPD4 230943Z 10005KT 04/04 A2963 RMK A01 T00440042  RH  099%=      5-min Rain = 0
KPD4 230944Z 10006KT 04/04 A2963 RMK A01 T00440042  RH  099%=      5-min Rain = 0
KPD4 230945Z 10005KT 04/04 A2963 RMK A01 T00440042  RH  099%=      5-min Rain = 0
KPD4 230946Z 10005KT 04/04 A2963 RMK A01 T00430042  RH  099%=      5-min Rain = 0
KPD4 230947Z 10005KT 04/04 A2963 RMK A01 T00440042  RH  099%=      5-min Rain = 0
KPD4 230948Z 09005KT 04/04 A2963 RMK A01 T00440042  RH  099%=      5-min Rain = 0
KPD4 230949Z 10006KT 04/04 A2963 RMK A01 T00430042  RH  099%=      5-min Rain = 0
KPD4 230950Z 09006KT 04/04 A2963 RMK A01 T00430042  RH  099%=      5-min Rain = 0
KPD4 230951Z 08005KT 04/04 A2963 RMK A01 T00440042  RH  099%=      5-min Rain = 0
KPD4 230952Z 08005KT 04/04 A2963 RMK A01 T00440042  RH  099%=      5-min Rain = 0
KPD4 230953Z 08006KT 04/04 A2963 RMK A01 T00440042  RH  099%=      5-min Rain = 0
KPD4 230954Z 08006KT 04/04 A2962 RMK A01 T00440042  RH  099%=      5-min Rain = 0
KPD4 230955Z 08005KT 04/04 A2963 RMK A01 T00440042  RH  099%=      5-min Rain = 0
KPD4 230956Z 09005KT 04/04 A2962 RMK A01 T00440042  RH  099%=      5-min Rain = 0
KPD4 230957Z 09003KT 04/04 A2962 RMK A01 T00440042  RH  099%=      5-min Rain = 0
KPD4 230958Z 08002KT 04/04 A2962 RMK A01 T00440042  RH  099%=      5-min Rain = 0
KPD4 230959Z 06002KT 04/04 A2962 RMK A01 T00440042  RH  099%=      5-min Rain = 0
KPD4 231000Z 05001KT 04/04 A2962 RMK A01 T00440042  RH  099%=      5-min Rain = 0
KPD4 231001Z 07003KT 04/04 A2962 RMK A01 T00430041  RH  099%=      5-min Rain = 0
KPD4 231002Z 07004KT 04/04 A2962 RMK A01 T00440042  RH  099%=      5-min Rain = 0
KPD4 231003Z 08004KT 04/04 A2962 RMK A01 T00430041  RH  099%=      5-min Rain = 0
KPD4 231004Z 08004KT 04/04 A2962 RMK A01 T00430041  RH  099%=      5-min Rain = 0
KPD4 231005Z 07005KT 04/04 A2961 RMK A01 T00440042  RH  099%=      5-min Rain = 0.01
KPD4 231006Z 07004KT 04/04 A2961 RMK A01 T00440042  RH  099%=      5-min Rain = 0
KPD4 231007Z 07004KT 04/04 A2961 RMK A01 T00440042  RH  099%=      5-min Rain = 0
KPD4 231008Z 05003KT 04/04 A2961 RMK A01 T00440042  RH  099%=      5-min Rain = 0
KPD4 231009Z 05003KT 04/04 A2961 RMK A01 T00440042  RH  099%=      5-min Rain = 0
KPD4 231010Z 07003KT 04/04 A2961 RMK A01 T00440042  RH  099%=      5-min Rain = 0
KPD4 231011Z 07003KT 04/04 A2961 RMK A01 T00440042  RH  099%=      5-min Rain = 0
KPD4 231012Z 08003KT 04/04 A2961 RMK A01 T00430041  RH  099%=      5-min Rain = 0
KPD4 231013Z 07003KT 04/04 A296 RMK A01 T00440042  RH  099%=      5-min Rain = 0
KPD4 231014Z 07004KT 04/04 A296 RMK A01 T00440042  RH  099%=      5-min Rain = 0
KPD4 231015Z 07004KT 04/04 A296 RMK A01 T00440042  RH  099%=      5-min Rain = 0
KPD4 231016Z 08003KT 04/04 A296 RMK A01 T00440042  RH  099%=      5-min Rain = 0
KPD4 231017Z 08003KT 04/04 A296 RMK A01 T00440042  RH  099%=      5-min Rain = 0
KPD4 231018Z 07002KT 04/04 A296 RMK A01 T00440042  RH  099%=      5-min Rain = 0
KPD4 231019Z 08002KT 04/04 A296 RMK A01 T00440042  RH  099%=      5-min Rain = 0
KPD4 231020Z 08002KT 04/04 A296 RMK A01 T00440042  RH  099%=      5-min Rain = 0
KPD4 231021Z 08003KT 04/04 A296 RMK A01 T00430041  RH  099%=      5-min Rain = 0
KPD4 231022Z 10004KT 04/04 A296 RMK A01 T00430042  RH  099%=      5-min Rain = 0
KPD4 231023Z 11005KT 04/04 A296 RMK A01 T00440042  RH  099%=      5-min Rain = 0
KPD4 231024Z 11004KT 04/04 A296 RMK A01 T00440042  RH  099%=      5-min Rain = 0
KPD4 231025Z 10004KT 04/04 A296 RMK A01 T00440042  RH  099%=      5-min Rain = 0
KPD4 231026Z 11004KT 04/04 A296 RMK A01 T00440042  RH  099%=      5-min Rain = 0
KPD4 231027Z 12004KT 04/04 A296 RMK A01 T00440042  RH  099%=      5-min Rain = 0
KPD4 231028Z 12004KT 04/04 A296 RMK A01 T00440042  RH  099%=      5-min Rain = 0
KPD4 231029Z 11004KT 04/04 A296 RMK A01 T00440042  RH  099%=      5-min Rain = 0
KPD4 231030Z 12003KT 05/04 A296 RMK A01 T00450043  RH  099%=      5-min Rain = 0
KPD4 231031Z 13004KT 05/04 A296 RMK A01 T00450043  RH  099%=      5-min Rain = 0
KPD4 231032Z 13003KT 05/04 A296 RMK A01 T00450043  RH  099%=      5-min Rain = 0
KPD4 231033Z 14003KT 05/04 A296 RMK A01 T00450043  RH  099%=      5-min Rain = 0
KPD4 231034Z 14003KT 04/04 A296 RMK A01 T00440042  RH  099%=      5-min Rain = 0
KPD4 231035Z 13003KT 04/04 A296 RMK A01 T00440042  RH  099%=      5-min Rain = 0
KPD4 231036Z 14003KT 05/04 A296 RMK A01 T00450043  RH  099%=      5-min Rain = 0
KPD4 231037Z 16003KT 04/04 A296 RMK A01 T00440042  RH  099%=      5-min Rain = 0
KPD4 231038Z 17003KT 05/04 A296 RMK A01 T00450043  RH  099%=      5-min Rain = 0
KPD4 231039Z 15004KT 05/04 A296 RMK A01 T00450043  RH  099%=      5-min Rain = 0
KPD4 231040Z 14005KT 05/04 A296 RMK A01 T00450043  RH  099%=      5-min Rain = 0
KPD4 231041Z 14005KT 05/04 A296 RMK A01 T00450042  RH  099%=      5-min Rain = 0
KPD4 231042Z 14006KT 05/04 A296 RMK A01 T00450042  RH  099%=      5-min Rain = 0
KPD4 231043Z 13005KT 05/04 A296 RMK A01 T00450043  RH  099%=      5-min Rain = 0
KPD4 231044Z 13006KT 05/04 A296 RMK A01 T00450043  RH  099%=      5-min Rain = 0
KPD4 231045Z 13006KT 05/04 A2959 RMK A01 T00450043  RH  099%=      5-min Rain = 0
KPD4 231046Z 13004KT 05/04 A2959 RMK A01 T00450043  RH  099%=      5-min Rain = 0
KPD4 231047Z 14006KT 04/04 A2959 RMK A01 T00440042  RH  099%=      5-min Rain = 0
KPD4 231048Z 15005KT 05/04 A2959 RMK A01 T00450042  RH  099%=      5-min Rain = 0
KPD4 231049Z 15006KT 05/04 A2959 RMK A01 T00450042  RH  099%=      5-min Rain = 0
KPD4 231050Z 16006KT 05/04 A2959 RMK A01 T00450042  RH  098%=      5-min Rain = 0
KPD4 231051Z 17007KT 05/04 A2959 RMK A01 T00450043  RH  098%=      5-min Rain = 0
KPD4 231052Z 18006KT 05/04 A2959 RMK A01 T00450042  RH  098%=      5-min Rain = 0
KPD4 231053Z 19005KT 05/04 A2959 RMK A01 T00450042  RH  098%=      5-min Rain = 0
KPD4 231054Z 18005KT 05/04 A2959 RMK A01 T00450042  RH  098%=      5-min Rain = 0
KPD4 231055Z 18006KT 05/04 A2959 RMK A01 T00450042  RH  098%=      5-min Rain = 0
KPD4 231056Z 17006KT 04/04 A2959 RMK A01 T00440042  RH  098%=      5-min Rain = 0
KPD4 231057Z 18006KT 05/04 A2959 RMK A01 T00450042  RH  098%=      5-min Rain = 0
KPD4 231058Z 19006KT 05/04 A2959 RMK A01 T00450042  RH  098%=      5-min Rain = 0.01
KPD4 231059Z 18007KT 05/04 A2959 RMK A01 T00450042  RH  098%=      5-min Rain = 0
KPD4 231100Z 19006KT 04/04 A2959 RMK A01 T00440042  RH  098%=      5-min Rain = 0
KPD4 231101Z 19005KT 05/04 A2959 RMK A01 T00450042  RH  098%=      5-min Rain = 0
KPD4 231102Z 19005KT 05/04 A2959 RMK A01 T00450042  RH  098%=      5-min Rain = 0
KPD4 231103Z 19006KT 05/04 A2959 RMK A01 T00450042  RH  098%=      5-min Rain = 0
KPD4 231104Z 19006KT 05/04 A2959 RMK A01 T00450042  RH  098%=      5-min Rain = 0
KPD4 231105Z 18005KT 05/04 A2959 RMK A01 T00450042  RH  098%=      5-min Rain = 0
KPD4 231106Z 18005KT 05/04 A2959 RMK A01 T00450042  RH  098%=      5-min Rain = 0
KPD4 231107Z 18005KT 05/04 A2959 RMK A01 T00450042  RH  098%=      5-min Rain = 0
KPD4 231108Z 17005KT 05/04 A2959 RMK A01 T00450042  RH  098%=      5-min Rain = 0
KPD4 231109Z 17005KT 04/04 A2959 RMK A01 T00440042  RH  098%=      5-min Rain = 0
KPD4 231110Z 17005KT 04/04 A2959 RMK A01 T00440042  RH  098%=      5-min Rain = 0
KPD4 231111Z 17005KT 04/04 A2959 RMK A01 T00440042  RH  098%=      5-min Rain = 0
KPD4 231112Z 17006KT 04/04 A2959 RMK A01 T00440042  RH  098%=      5-min Rain = 0
KPD4 231113Z 16005KT 04/04 A2959 RMK A01 T00440042  RH  098%=      5-min Rain = 0
KPD4 231114Z 16005KT 04/04 A2959 RMK A01 T00440042  RH  098%=      5-min Rain = 0
KPD4 231115Z 16005KT 04/04 A2959 RMK A01 T00440042  RH  098%=      5-min Rain = 0
KPD4 231116Z 16005KT 04/04 A2959 RMK A01 T00440041  RH  098%=      5-min Rain = 0
KPD4 231117Z 16005KT 04/04 A2959 RMK A01 T00440041  RH  098%=      5-min Rain = 0
KPD4 231118Z 15005KT 04/04 A2959 RMK A01 T00440042  RH  098%=      5-min Rain = 0
KPD4 231119Z 15005KT 04/04 A2958 RMK A01 T00440041  RH  098%=      5-min Rain = 0
KPD4 231120Z 15005KT 04/04 A2958 RMK A01 T00440041  RH  098%=      5-min Rain = 0
KPD4 231121Z 14004KT 04/04 A2958 RMK A01 T00440041  RH  098%=      5-min Rain = 0
KPD4 231122Z 15005KT 04/04 A2958 RMK A01 T00440041  RH  098%=      5-min Rain = 0.01
KPD4 231123Z 14004KT 04/04 A2958 RMK A01 T00440041  RH  098%=      5-min Rain = 0
KPD4 231124Z 13005KT 04/04 A2958 RMK A01 T00440041  RH  098%=      5-min Rain = 0
KPD4 231125Z 12004KT 04/04 A2958 RMK A01 T00440041  RH  098%=      5-min Rain = 0
KPD4 231126Z 12005KT 04/04 A2958 RMK A01 T00440041  RH  098%=      5-min Rain = 0
KPD4 231127Z 12005KT 04/04 A2958 RMK A01 T00430041  RH  098%=      5-min Rain = 0
KPD4 231128Z 12005KT 04/04 A2958 RMK A01 T00430041  RH  098%=      5-min Rain = 0
KPD4 231129Z 11004KT 04/04 A2958 RMK A01 T00430041  RH  098%=      5-min Rain = 0
KPD4 231130Z 11005KT 04/04 A2958 RMK A01 T00430041  RH  098%=      5-min Rain = 0
KPD4 231131Z 11005KT 04/04 A2958 RMK A01 T00430041  RH  098%=      5-min Rain = 0
KPD4 231132Z 11005KT 04/04 A2958 RMK A01 T00430041  RH  098%=      5-min Rain = 0
KPD4 231133Z 11005KT 04/04 A2958 RMK A01 T00430041  RH  098%=      5-min Rain = 0
KPD4 231134Z 11005KT 04/04 A2958 RMK A01 T00430041  RH  098%=      5-min Rain = 0
KPD4 231135Z 11004KT 04/04 A2958 RMK A01 T00430041  RH  098%=      5-min Rain = 0
KPD4 231136Z 11004KT 04/04 A2958 RMK A01 T00430041  RH  098%=      5-min Rain = 0
KPD4 231137Z 11005KT 04/04 A2958 RMK A01 T00430041  RH  098%=      5-min Rain = 0
KPD4 231138Z 11005KT 04/04 A2958 RMK A01 T00430041  RH  098%=      5-min Rain = 0
KPD4 231139Z 11004KT 04/04 A2958 RMK A01 T00430041  RH  099%=      5-min Rain = 0
KPD4 231140Z 11005KT 04/04 A2957 RMK A01 T00430041  RH  099%=      5-min Rain = 0
KPD4 231141Z 10005KT 04/04 A2957 RMK A01 T00430040  RH  098%=      5-min Rain = 0
KPD4 231142Z 10005KT 04/04 A2957 RMK A01 T00430041  RH  099%=      5-min Rain = 0
KPD4 231143Z 10005KT 04/04 A2957 RMK A01 T00430041  RH  099%=      5-min Rain = 0
KPD4 231144Z 10005KT 04/04 A2957 RMK A01 T00430041  RH  099%=      5-min Rain = 0
KPD4 231145Z 10005KT 04/04 A2957 RMK A01 T00430041  RH  099%=      5-min Rain = 0
KPD4 231146Z 09004KT 04/04 A2956 RMK A01 T00430040  RH  099%=      5-min Rain = 0
KPD4 231147Z 09004KT 04/04 A2956 RMK A01 T00430041  RH  099%=      5-min Rain = 0
KPD4 231148Z 08004KT 04/04 A2956 RMK A01 T00430040  RH  099%=      5-min Rain = 0
KPD4 231149Z 08004KT 04/04 A2956 RMK A01 T00430041  RH  099%=      5-min Rain = 0
KPD4 231150Z 09003KT 04/04 A2956 RMK A01 T00420040  RH  099%=      5-min Rain = 0
KPD4 231151Z 09003KT 04/04 A2956 RMK A01 T00420040  RH  099%=      5-min Rain = 0
KPD4 231152Z 09003KT 04/04 A2956 RMK A01 T00420040  RH  099%=      5-min Rain = 0
KPD4 231153Z 09003KT 04/04 A2956 RMK A01 T00420040  RH  099%=      5-min Rain = 0
KPD4 231154Z 08002KT 04/04 A2956 RMK A01 T00420040  RH  099%=      5-min Rain = 0
KPD4 231155Z 09002KT 04/04 A2956 RMK A01 T00420040  RH  099%=      5-min Rain = 0
KPD4 231156Z 08001KT 04/04 A2956 RMK A01 T00430040  RH  099%=      5-min Rain = 0
KPD4 231157Z 06000KT 04/04 A2956 RMK A01 T00420040  RH  099%=      5-min Rain = 0
KPD4 231158Z 07001KT 04/04 A2956 RMK A01 T00420040  RH  099%=      5-min Rain = 0
KPD4 231159Z 07000KT 04/04 A2955 RMK A01 T00420040  RH  099%=      5-min Rain = 0
KPD4 231200Z 04000KT 04/04 A2955 RMK A01 T00420040  RH  099%=      5-min Rain = 0
KPD4 231201Z 00000KT 04/04 A2955 RMK A01 T00420040  RH  099%=      5-min Rain = 0
KPD4 231202Z 23001KT 04/04 A2955 RMK A01 T00420040  RH  099%=      5-min Rain = 0
KPD4 231203Z 18001KT 04/04 A2955 RMK A01 T00420040  RH  099%=      5-min Rain = 0
KPD4 231204Z 12000KT 04/04 A2955 RMK A01 T00420040  RH  099%=      5-min Rain = 0
KPD4 231205Z 13002KT 04/04 A2955 RMK A01 T00420040  RH  099%=      5-min Rain = 0
KPD4 231206Z 12003KT 04/04 A2955 RMK A01 T00420040  RH  099%=      5-min Rain = 0
KPD4 231207Z 14003KT 04/04 A2955 RMK A01 T00420040  RH  099%=      5-min Rain = 0
KPD4 231208Z 15003KT 04/04 A2955 RMK A01 T00420040  RH  099%=      5-min Rain = 0
KPD4 231209Z 14004KT 04/04 A2955 RMK A01 T00430041  RH  099%=      5-min Rain = 0
KPD4 231210Z 14004KT 04/04 A2955 RMK A01 T00420040  RH  099%=      5-min Rain = 0
KPD4 231211Z 13004KT 04/04 A2955 RMK A01 T00420040  RH  099%=      5-min Rain = 0
KPD4 231212Z 13005KT 04/04 A2955 RMK A01 T00420040  RH  099%=      5-min Rain = 0
KPD4 231213Z 13004KT 04/04 A2955 RMK A01 T00420040  RH  099%=      5-min Rain = 0
KPD4 231214Z 13004KT 04/04 A2955 RMK A01 T00420040  RH  099%=      5-min Rain = 0
KPD4 231215Z 13003KT 04/04 A2955 RMK A01 T00420040  RH  099%=      5-min Rain = 0
KPD4 231216Z 13004KT 04/04 A2954 RMK A01 T00420040  RH  099%=      5-min Rain = 0
KPD4 231217Z 12004KT 04/04 A2954 RMK A01 T00420040  RH  099%=      5-min Rain = 0
KPD4 231218Z 12004KT 04/04 A2954 RMK A01 T00420040  RH  099%=      5-min Rain = 0
KPD4 231219Z 13004KT 04/04 A2954 RMK A01 T00420040  RH  099%=      5-min Rain = 0
KPD4 231220Z 16003KT 04/04 A2954 RMK A01 T00420040  RH  098%=      5-min Rain = 0
KPD4 231221Z 17003KT 04/04 A2954 RMK A01 T00420039  RH  098%=      5-min Rain = 0
KPD4 231222Z 19003KT 04/04 A2954 RMK A01 T00420039  RH  098%=      5-min Rain = 0
KPD4 231223Z 20003KT 04/04 A2954 RMK A01 T00420039  RH  098%=      5-min Rain = 0
KPD4 231224Z 20003KT 04/04 A2954 RMK A01 T00420039  RH  098%=      5-min Rain = 0
KPD4 231225Z 20002KT 04/04 A2953 RMK A01 T00420039  RH  098%=      5-min Rain = 0
KPD4 231226Z 21002KT 04/04 A2953 RMK A01 T00420039  RH  098%=      5-min Rain = 0
KPD4 231227Z 20002KT 04/04 A2953 RMK A01 T00420039  RH  098%=      5-min Rain = 0
KPD4 231228Z 18001KT 04/04 A2953 RMK A01 T00420039  RH  098%=      5-min Rain = 0
KPD4 231229Z 16002KT 04/04 A2953 RMK A01 T00420039  RH  098%=      5-min Rain = 0
KPD4 231230Z 14002KT 04/04 A2953 RMK A01 T00420039  RH  098%=      5-min Rain = 0
KPD4 231231Z 15002KT 04/04 A2953 RMK A01 T00420039  RH  098%=      5-min Rain = 0
KPD4 231232Z 14002KT 04/04 A2953 RMK A01 T00420038  RH  098%=      5-min Rain = 0
KPD4 231233Z 14003KT 04/04 A2953 RMK A01 T00420039  RH  098%=      5-min Rain = 0
KPD4 231234Z 13002KT 04/04 A2953 RMK A01 T00420039  RH  098%=      5-min Rain = 0
KPD4 231235Z 12002KT 04/04 A2953 RMK A01 T00420039  RH  098%=      5-min Rain = 0
KPD4 231236Z 12002KT 04/04 A2953 RMK A01 T00420038  RH  098%=      5-min Rain = 0
KPD4 231237Z 12002KT 04/04 A2953 RMK A01 T00410038  RH  098%=      5-min Rain = 0
KPD4 231238Z 10002KT 04/04 A2953 RMK A01 T00410038  RH  098%=      5-min Rain = 0
KPD4 231239Z 10002KT 04/04 A2953 RMK A01 T00410038  RH  098%=      5-min Rain = 0
KPD4 231240Z 11002KT 04/04 A2953 RMK A01 T00410038  RH  098%=      5-min Rain = 0
KPD4 231241Z 12003KT 04/04 A2953 RMK A01 T00410038  RH  098%=      5-min Rain = 0
KPD4 231242Z 11003KT 04/04 A2953 RMK A01 T00410038  RH  098%=      5-min Rain = 0
KPD4 231243Z 11002KT 04/04 A2953 RMK A01 T00410038  RH  098%=      5-min Rain = 0
KPD4 231244Z 12002KT 04/04 A2953 RMK A01 T00410038  RH  098%=      5-min Rain = 0
KPD4 231245Z 12002KT 04/04 A2953 RMK A01 T00410038  RH  098%=      5-min Rain = 0
KPD4 231246Z 13003KT 04/04 A2953 RMK A01 T00410038  RH  098%=      5-min Rain = 0
KPD4 231247Z 14003KT 04/04 A2953 RMK A01 T00410038  RH  098%=      5-min Rain = 0
KPD4 231248Z 14003KT 04/04 A2953 RMK A01 T00410038  RH  098%=      5-min Rain = 0
KPD4 231249Z 15003KT 04/04 A2953 RMK A01 T00410038  RH  098%=      5-min Rain = 0
KPD4 231250Z 15003KT 04/04 A2953 RMK A01 T00400037  RH  098%=      5-min Rain = 0
KPD4 231251Z 16003KT 04/04 A2953 RMK A01 T00400037  RH  098%=      5-min Rain = 0
KPD4 231252Z 16004KT 04/04 A2953 RMK A01 T00410037  RH  098%=      5-min Rain = 0
KPD4 231253Z 16004KT 04/04 A2953 RMK A01 T00400037  RH  098%=      5-min Rain = 0
KPD4 231254Z 17004KT 04/04 A2953 RMK A01 T00400037  RH  098%=      5-min Rain = 0
KPD4 231255Z 17004KT 04/04 A2953 RMK A01 T00400037  RH  098%=      5-min Rain = 0.01
KPD4 231256Z 18004KT 04/04 A2953 RMK A01 T00400037  RH  098%=      5-min Rain = 0
KPD4 231257Z 18004KT 04/04 A2953 RMK A01 T00400037  RH  098%=      5-min Rain = 0
KPD4 231258Z 19004KT 04/04 A2953 RMK A01 T00400037  RH  098%=      5-min Rain = 0
KPD4 231259Z 19004KT 04/04 A2953 RMK A01 T00400037  RH  098%=      5-min Rain = 0
KPD4 231300Z 20004KT 04/04 A2953 RMK A01 T00400037  RH  098%=      5-min Rain = 0
KPD4 231301Z 21003KT 04/04 A2953 RMK A01 T00400037  RH  098%=      5-min Rain = 0.01
KPD4 231302Z 21003KT 04/04 A2953 RMK A01 T00400037  RH  098%=      5-min Rain = 0
KPD4 231303Z 21003KT 04/04 A2953 RMK A01 T00400037  RH  098%=      5-min Rain = 0
KPD4 231304Z 23004KT 04/04 A2953 RMK A01 T00400037  RH  098%=      5-min Rain = 0
KPD4 231305Z 23004KT 04/04 A2953 RMK A01 T00390036  RH  098%=      5-min Rain = 0
KPD4 231306Z 21004KT 04/04 A2952 RMK A01 T00400036  RH  098%=      5-min Rain = 0.01
KPD4 231307Z 22004KT 04/04 A2952 RMK A01 T00390036  RH  098%=      5-min Rain = 0
KPD4 231308Z 21008KT 04/04 A2952 RMK A01 T00390036  RH  098%=      5-min Rain = 0
KPD4 231309Z 21007KT 04/04 A2952 RMK A01 T00390036  RH  098%=      5-min Rain = 0
KPD4 231310Z 22007KT 04/04 A2952 RMK A01 T00390036  RH  098%=      5-min Rain = 0
KPD4 231311Z 22008KT 04/04 A2952 RMK A01 T00390036  RH  098%=      5-min Rain = 0
KPD4 231312Z 21007KT 04/04 A2952 RMK A01 T00380035  RH  098%=      5-min Rain = 0.01
KPD4 231313Z 21010KT 04/04 A2952 RMK A01 T00380035  RH  098%=      5-min Rain = 0
KPD4 231314Z 21011KT 04/03 A2952 RMK A01 T00370034  RH  097%=      5-min Rain = 0
KPD4 231315Z 21010KT 04/03 A2952 RMK A01 T00380034  RH  097%=      5-min Rain = 0
KPD4 231316Z 21010KT 04/03 A2952 RMK A01 T00370033  RH  097%=      5-min Rain = 0
KPD4 231317Z 21010KT 04/03 A2952 RMK A01 T00370033  RH  097%=      5-min Rain = 0
KPD4 231318Z 21012KT 04/03 A2952 RMK A01 T00370032  RH  097%=      5-min Rain = 0
KPD4 231319Z 20012KT 04/03 A2952 RMK A01 T00370032  RH  097%=      5-min Rain = 0
KPD4 231320Z 21012KT 04/03 A2952 RMK A01 T00370032  RH  097%=      5-min Rain = 0
KPD4 231321Z 21012KT 04/03 A2952 RMK A01 T00370031  RH  096%=      5-min Rain = 0.01
KPD4 231322Z 21011KT 04/03 A2952 RMK A01 T00360031  RH  096%=      5-min Rain = 0
KPD4 231323Z 21012KT 04/03 A2951 RMK A01 T00360030  RH  096%=      5-min Rain = 0
KPD4 231324Z 21010KT 04/03 A2951 RMK A01 T00360030  RH  096%=      5-min Rain = 0
KPD4 231325Z 21009G14KT 04/03 A2951 RMK A01 T00360030  RH  096%=      5-min Rain = 0
KPD4 231326Z 21013KT 04/03 A2951 RMK A01 T00350030  RH  096%=      5-min Rain = 0
KPD4 231327Z 21011KT 04/03 A2951 RMK A01 T00350028  RH  096%=      5-min Rain = 0
KPD4 231328Z 21012KT 04/03 A2951 RMK A01 T00350028  RH  095%=      5-min Rain = 0
KPD4 231329Z 21011KT 04/03 A2951 RMK A01 T00350027  RH  095%=      5-min Rain = 0
KPD4 231330Z 21011KT 03/03 A2951 RMK A01 T00340027  RH  095%=      5-min Rain = 0
KPD4 231331Z 21012KT 03/03 A2951 RMK A01 T00340026  RH  095%=      5-min Rain = 0
KPD4 231332Z 22014KT 03/03 A2951 RMK A01 T00330025  RH  094%=      5-min Rain = 0.01
KPD4 231333Z 22012KT 03/02 A2951 RMK A01 T00330024  RH  094%=      5-min Rain = 0
KPD4 231334Z 22010KT 03/02 A2951 RMK A01 T00330024  RH  094%=      5-min Rain = 0
KPD4 231335Z 22010KT 03/02 A2951 RMK A01 T00320023  RH  094%=      5-min Rain = 0
KPD4 231336Z 22012KT 03/02 A2951 RMK A01 T00320023  RH  094%=      5-min Rain = 0
KPD4 231337Z 22010KT 03/02 A2951 RMK A01 T00320022  RH  094%=      5-min Rain = 0.01
KPD4 231338Z 23009KT 03/02 A2951 RMK A01 T00320022  RH  094%=      5-min Rain = 0
KPD4 231339Z 22011KT 03/02 A2951 RMK A01 T00310022  RH  094%=      5-min Rain = 0
KPD4 231340Z 22012KT 03/02 A2951 RMK A01 T00310022  RH  094%=      5-min Rain = 0
KPD4 231341Z 22010KT 03/02 A2951 RMK A01 T00310022  RH  093%=      5-min Rain = 0
KPD4 231342Z 22010KT 03/02 A2951 RMK A01 T00310022  RH  094%=      5-min Rain = 0
KPD4 231343Z 23009KT 03/02 A2951 RMK A01 T00310022  RH  094%=      5-min Rain = 0
KPD4 231344Z 23010KT 03/02 A2951 RMK A01 T00310022  RH  094%=      5-min Rain = 0.01
KPD4 231345Z 23009KT 03/02 A2951 RMK A01 T00310022  RH  094%=      5-min Rain = 0
KPD4 231346Z 22010KT 03/02 A2951 RMK A01 T00310022  RH  094%=      5-min Rain = 0
KPD4 231347Z 23007KT 03/02 A2951 RMK A01 T00310022  RH  094%=      5-min Rain = 0
KPD4 231348Z 22009KT 03/02 A2951 RMK A01 T00310022  RH  094%=      5-min Rain = 0
KPD4 231349Z 22009KT 03/02 A2951 RMK A01 T00310023  RH  094%=      5-min Rain = 0
KPD4 231350Z 23009KT 03/02 A2951 RMK A01 T00300022  RH  095%=      5-min Rain = 0
KPD4 231351Z 23010KT 03/02 A2951 RMK A01 T00300023  RH  095%=      5-min Rain = 0.01
KPD4 231352Z 23008KT 03/02 A2951 RMK A01 T00300022  RH  094%=      5-min Rain = 0
KPD4 231353Z 22007KT 03/02 A2951 RMK A01 T00300022  RH  094%=      5-min Rain = 0
KPD4 231354Z 22008KT 03/02 A2951 RMK A01 T00300023  RH  095%=      5-min Rain = 0
KPD4 231355Z 23008KT 03/02 A2951 RMK A01 T00300022  RH  095%=      5-min Rain = 0.01
KPD4 231356Z 22008KT 03/02 A2951 RMK A01 T00300022  RH  095%=      5-min Rain = 0
KPD4 231357Z 22008KT 03/02 A2951 RMK A01 T00300022  RH  095%=      5-min Rain = 0
KPD4 231358Z 22008KT 03/02 A2951 RMK A01 T00300022  RH  095%=      5-min Rain = 0
KPD4 231359Z 22009KT 03/02 A2951 RMK A01 T00290022  RH  095%=      5-min Rain = 0
KPD4 231400Z 22008KT 03/02 A2951 RMK A01 T00290022  RH  095%=      5-min Rain = 0
KPD4 231401Z 22008KT 03/02 A2951 RMK A01 T00290022  RH  095%=      5-min Rain = 0
KPD4 231402Z 22009KT 03/02 A2951 RMK A01 T00290022  RH  095%=      5-min Rain = 0
KPD4 231403Z 22008KT 03/02 A2951 RMK A01 T00290023  RH  095%=      5-min Rain = 0.01
KPD4 231404Z 23008KT 03/02 A2951 RMK A01 T00290022  RH  095%=      5-min Rain = 0
KPD4 231405Z 22008KT 03/02 A2951 RMK A01 T00300023  RH  095%=      5-min Rain = 0
KPD4 231406Z 22007KT 03/02 A2951 RMK A01 T00300023  RH  095%=      5-min Rain = 0
KPD4 231407Z 23008KT 03/02 A2951 RMK A01 T00300023  RH  095%=      5-min Rain = 0
KPD4 231408Z 22008KT 03/02 A2951 RMK A01 T00300023  RH  095%=      5-min Rain = 0
KPD4 231409Z 23008KT 03/02 A2951 RMK A01 T00300023  RH  095%=      5-min Rain = 0
KPD4 231410Z 23006KT 03/02 A2951 RMK A01 T00300023  RH  095%=      5-min Rain = 0
KPD4 231411Z 22009KT 03/02 A2951 RMK A01 T00300023  RH  095%=      5-min Rain = 0
KPD4 231412Z 22009KT 03/02 A2951 RMK A01 T00300024  RH  095%=      5-min Rain = 0
KPD4 231413Z 22008KT 03/02 A2951 RMK A01 T00300023  RH  095%=      5-min Rain = 0
KPD4 231414Z 22009KT 03/02 A2951 RMK A01 T00300024  RH  095%=      5-min Rain = 0
KPD4 231415Z 22008KT 03/02 A2951 RMK A01 T00300024  RH  096%=      5-min Rain = 0
KPD4 231416Z 23009KT 03/02 A2951 RMK A01 T00300024  RH  096%=      5-min Rain = 0
KPD4 231417Z 22010KT 03/02 A2951 RMK A01 T00300024  RH  096%=      5-min Rain = 0
KPD4 231418Z 22008KT 03/02 A2951 RMK A01 T00310024  RH  095%=      5-min Rain = 0
KPD4 231419Z 22008KT 03/02 A2951 RMK A01 T00310024  RH  095%=      5-min Rain = 0
KPD4 231420Z 22007KT 03/02 A2951 RMK A01 T00310024  RH  095%=      5-min Rain = 0
KPD4 231421Z 22006KT 03/02 A2951 RMK A01 T00310024  RH  096%=      5-min Rain = 0
KPD4 231422Z 22007KT 03/03 A2951 RMK A01 T00310025  RH  096%=      5-min Rain = 0
KPD4 231423Z 22007KT 03/03 A2951 RMK A01 T00310025  RH  096%=      5-min Rain = 0
KPD4 231424Z 23007KT 03/03 A2951 RMK A01 T00310025  RH  096%=      5-min Rain = 0
KPD4 231425Z 22006KT 03/03 A2951 RMK A01 T00310025  RH  096%=      5-min Rain = 0
KPD4 231426Z 23008KT 03/03 A2951 RMK A01 T00310025  RH  096%=      5-min Rain = 0
KPD4 231427Z 23007KT 03/03 A2951 RMK A01 T00320026  RH  096%=      5-min Rain = 0
KPD4 231428Z 23006KT 03/03 A2951 RMK A01 T00320026  RH  096%=      5-min Rain = 0
KPD4 231429Z 23006KT 03/03 A2951 RMK A01 T00320026  RH  096%=      5-min Rain = 0
KPD4 231430Z 23006KT 03/03 A2951 RMK A01 T00320027  RH  096%=      5-min Rain = 0
KPD4 231431Z 23007KT 03/03 A2951 RMK A01 T00320026  RH  096%=      5-min Rain = 0
KPD4 231432Z 23007KT 03/03 A2951 RMK A01 T00320026  RH  096%=      5-min Rain = 0
KPD4 231433Z 24006KT 03/03 A2951 RMK A01 T00320026  RH  096%=      5-min Rain = 0
KPD4 231434Z 24008KT 03/03 A2951 RMK A01 T00330026  RH  096%=      5-min Rain = 0
KPD4 231435Z 24007KT 03/03 A2951 RMK A01 T00330026  RH  096%=      5-min Rain = 0
KPD4 231436Z 24007KT 03/03 A2951 RMK A01 T00330026  RH  095%=      5-min Rain = 0
KPD4 231437Z 24008KT 03/03 A2951 RMK A01 T00330026  RH  095%=      5-min Rain = 0
KPD4 231438Z 25006KT 03/03 A2951 RMK A01 T00330026  RH  095%=      5-min Rain = 0
KPD4 231439Z 25007KT 03/03 A2951 RMK A01 T00330026  RH  095%=      5-min Rain = 0
KPD4 231440Z 24007KT 03/03 A2951 RMK A01 T00330027  RH  095%=      5-min Rain = 0
KPD4 231441Z 25006KT 03/03 A2951 RMK A01 T00340027  RH  095%=      5-min Rain = 0
KPD4 231442Z 25007KT 03/03 A2951 RMK A01 T00340027  RH  095%=      5-min Rain = 0
KPD4 231443Z 25008KT 03/03 A2951 RMK A01 T00340027  RH  095%=      5-min Rain = 0
KPD4 231444Z 25008KT 03/03 A2951 RMK A01 T00340027  RH  095%=      5-min Rain = 0.01
KPD4 231445Z 25007KT 03/03 A2951 RMK A01 T00340026  RH  095%=      5-min Rain = 0
KPD4 231446Z 25007KT 04/03 A2951 RMK A01 T00350027  RH  095%=      5-min Rain = 0
KPD4 231447Z 26007KT 03/03 A2951 RMK A01 T00340027  RH  095%=      5-min Rain = 0
KPD4 231448Z 25008KT 03/03 A2951 RMK A01 T00340027  RH  095%=      5-min Rain = 0
KPD4 231449Z 25007KT 04/03 A2951 RMK A01 T00350027  RH  095%=      5-min Rain = 0
KPD4 231450Z 26006KT 04/03 A2952 RMK A01 T00350027  RH  095%=      5-min Rain = 0
KPD4 231451Z 26007KT 04/03 A2952 RMK A01 T00350029  RH  095%=      5-min Rain = 0
KPD4 231452Z 26009KT 04/03 A2951 RMK A01 T00350028  RH  095%=      5-min Rain = 0
KPD4 231453Z 26010KT 04/03 A2952 RMK A01 T00350028  RH  095%=      5-min Rain = 0
KPD4 231454Z 26009KT 04/03 A2952 RMK A01 T00350027  RH  094%=      5-min Rain = 0
KPD4 231455Z 25008KT 04/03 A2952 RMK A01 T00360026  RH  094%=      5-min Rain = 0
KPD4 231456Z 25007KT 04/03 A2952 RMK A01 T00350027  RH  094%=      5-min Rain = 0
KPD4 231457Z 25009KT 04/03 A2952 RMK A01 T00350027  RH  094%=      5-min Rain = 0
KPD4 231458Z 25009KT 04/03 A2952 RMK A01 T00350026  RH  094%=      5-min Rain = 0
KPD4 231459Z 25010KT 04/03 A2952 RMK A01 T00350026  RH  094%=      5-min Rain = 0
KPD4 231500Z 25011KT 04/03 A2952 RMK A01 T00350025  RH  093%=      5-min Rain = 0
KPD4 231501Z 25011KT 04/02 A2952 RMK A01 T00350024  RH  093%=      5-min Rain = 0
KPD4 231502Z 24008KT 04/03 A2952 RMK A01 T00350025  RH  093%=      5-min Rain = 0
KPD4 231503Z 25010KT 04/03 A2952 RMK A01 T00350026  RH  094%=      5-min Rain = 0
KPD4 231504Z 25009KT 04/03 A2952 RMK A01 T00350025  RH  093%=      5-min Rain = 0
KPD4 231505Z 24007KT 04/03 A2952 RMK A01 T00350025  RH  094%=      5-min Rain = 0.01
KPD4 231506Z 25010KT 04/03 A2952 RMK A01 T00350026  RH  094%=      5-min Rain = 0
KPD4 231507Z 25011KT 04/03 A2952 RMK A01 T00350026  RH  094%=      5-min Rain = 0
KPD4 231508Z 25011KT 04/02 A2952 RMK A01 T00350024  RH  093%=      5-min Rain = 0
KPD4 231509Z 26010KT 04/02 A2952 RMK A01 T00350024  RH  093%=      5-min Rain = 0
KPD4 231510Z 26010KT 04/03 A2952 RMK A01 T00350025  RH  093%=      5-min Rain = 0
KPD4 231511Z 26011KT 04/03 A2952 RMK A01 T00350025  RH  093%=      5-min Rain = 0
KPD4 231512Z 25012KT 04/02 A2952 RMK A01 T00350024  RH  093%=      5-min Rain = 0
KPD4 231513Z 25013KT 04/02 A2951 RMK A01 T00350023  RH  092%=      5-min Rain = 0
KPD4 231514Z 26014KT 04/02 A2951 RMK A01 T00350022  RH  092%=      5-min Rain = 0
KPD4 231515Z 25010KT 04/02 A2951 RMK A01 T00350023  RH  092%=      5-min Rain = 0
KPD4 231516Z 25013KT 04/02 A2951 RMK A01 T00350024  RH  093%=      5-min Rain = 0
KPD4 231517Z 26013KT 04/02 A2951 RMK A01 T00350023  RH  092%=      5-min Rain = 0
KPD4 231518Z 26013KT 04/02 A2951 RMK A01 T00350023  RH  091%=      5-min Rain = 0
KPD4 231519Z 25012KT 04/02 A2951 RMK A01 T00360023  RH  092%=      5-min Rain = 0
KPD4 231520Z 26012KT 04/02 A2951 RMK A01 T00360023  RH  091%=      5-min Rain = 0
KPD4 231521Z 26013KT 04/02 A2951 RMK A01 T00360023  RH  091%=      5-min Rain = 0
KPD4 231522Z 26011KT 04/02 A2951 RMK A01 T00360023  RH  091%=      5-min Rain = 0
KPD4 231523Z 26014KT 04/02 A2951 RMK A01 T00370024  RH  092%=      5-min Rain = 0
KPD4 231524Z 26014KT 04/02 A2951 RMK A01 T00370024  RH  091%=      5-min Rain = 0
KPD4 231525Z 26013KT 04/03 A2951 RMK A01 T00380025  RH  091%=      5-min Rain = 0
KPD4 231526Z 26015KT 04/03 A2951 RMK A01 T00390026  RH  091%=      5-min Rain = 0
KPD4 231527Z 26014KT 04/03 A2951 RMK A01 T00390025  RH  090%=      5-min Rain = 0
KPD4 231528Z 26014KT 04/03 A2951 RMK A01 T00400025  RH  090%=      5-min Rain = 0
KPD4 231529Z 26013KT 04/03 A2951 RMK A01 T00400026  RH  091%=      5-min Rain = 0
KPD4 231530Z 26013KT 04/03 A2951 RMK A01 T00400026  RH  091%=      5-min Rain = 0
KPD4 231531Z 26012KT 04/03 A2952 RMK A01 T00410028  RH  091%=      5-min Rain = 0
KPD4 231532Z 25014KT 04/03 A2951 RMK A01 T00420029  RH  091%=      5-min Rain = 0
KPD4 231533Z 25014KT 04/03 A2952 RMK A01 T00430029  RH  091%=      5-min Rain = 0
KPD4 231534Z 26014KT 04/03 A2951 RMK A01 T00430029  RH  090%=      5-min Rain = 0
KPD4 231535Z 26013KT 04/03 A2951 RMK A01 T00440030  RH  091%=      5-min Rain = 0
KPD4 231536Z 27012KT 04/03 A2952 RMK A01 T00440031  RH  091%=      5-min Rain = 0
KPD4 231537Z 27014KT 04/03 A2951 RMK A01 T00440031  RH  091%=      5-min Rain = 0
KPD4 231538Z 27014KT 05/03 A2951 RMK A01 T00450028  RH  089%=      5-min Rain = 0
KPD4 231539Z 27014KT 04/03 A2951 RMK A01 T00440027  RH  089%=      5-min Rain = 0
KPD4 231540Z 26016KT 04/03 A2952 RMK A01 T00440027  RH  089%=      5-min Rain = 0
KPD4 231541Z 27015KT 04/03 A2952 RMK A01 T00430026  RH  089%=      5-min Rain = 0
KPD4 231542Z 25015KT 04/03 A2952 RMK A01 T00430027  RH  089%=      5-min Rain = 0
KPD4 231543Z 27014KT 04/03 A2952 RMK A01 T00430028  RH  090%=      5-min Rain = 0
KPD4 231544Z 26015KT 04/03 A2952 RMK A01 T00430029  RH  091%=      5-min Rain = 0
KPD4 231545Z 27012KT 04/03 A2952 RMK A01 T00440028  RH  090%=      5-min Rain = 0
KPD4 231546Z 26015KT 04/03 A2952 RMK A01 T00440030  RH  091%=      5-min Rain = 0
KPD4 231547Z 26015KT 04/03 A2952 RMK A01 T00430028  RH  090%=      5-min Rain = 0
KPD4 231548Z 26014KT 04/03 A2952 RMK A01 T00430028  RH  090%=      5-min Rain = 0
KPD4 231549Z 26015KT 04/03 A2952 RMK A01 T00430028  RH  090%=      5-min Rain = 0
KPD4 231550Z 27015KT 04/03 A2952 RMK A01 T00430027  RH  089%=      5-min Rain = 0
KPD4 231551Z 27017KT 04/03 A2952 RMK A01 T00420026  RH  089%=      5-min Rain = 0
KPD4 231552Z 26017KT 04/03 A2952 RMK A01 T00420026  RH  089%=      5-min Rain = 0
KPD4 231553Z 27013KT 04/03 A2952 RMK A01 T00410026  RH  090%=      5-min Rain = 0
KPD4 231554Z 26014KT 04/03 A2952 RMK A01 T00410028  RH  091%=      5-min Rain = 0
KPD4 231555Z 26017KT 04/03 A2952 RMK A01 T00410026  RH  090%=      5-min Rain = 0
KPD4 231556Z 26016KT 04/02 A2952 RMK A01 T00400023  RH  088%=      5-min Rain = 0
KPD4 231557Z 27014KT 04/02 A2952 RMK A01 T00390022  RH  089%=      5-min Rain = 0
KPD4 231558Z 28015KT 04/02 A2952 RMK A01 T00390024  RH  090%=      5-min Rain = 0
KPD4 231559Z 27017KT 04/02 A2952 RMK A01 T00380023  RH  090%=      5-min Rain = 0
KPD4 231600Z 27015KT 04/02 A2952 RMK A01 T00380021  RH  089%=      5-min Rain = 0
KPD4 231601Z 28015KT 04/02 A2952 RMK A01 T00370021  RH  089%=      5-min Rain = 0
KPD4 231602Z 28015KT 04/02 A2952 RMK A01 T00370022  RH  090%=      5-min Rain = 0
KPD4 231603Z 27016KT 04/02 A2952 RMK A01 T00370023  RH  091%=      5-min Rain = 0
KPD4 231604Z 27016KT 04/02 A2952 RMK A01 T00370023  RH  091%=      5-min Rain = 0
KPD4 231605Z 27015KT 04/02 A2952 RMK A01 T00360023  RH  091%=      5-min Rain = 0
KPD4 231606Z 28016KT 04/02 A2952 RMK A01 T00360022  RH  091%=      5-min Rain = 0
KPD4 231607Z 28018KT 04/02 A2952 RMK A01 T00360022  RH  091%=      5-min Rain = 0
KPD4 231608Z 27017KT 04/02 A2952 RMK A01 T00360021  RH  090%=      5-min Rain = 0
KPD4 231609Z 28018KT 04/02 A2952 RMK A01 T00360021  RH  090%=      5-min Rain = 0
KPD4 231610Z 27017KT 04/02 A2953 RMK A01 T00360021  RH  090%=      5-min Rain = 0
KPD4 231611Z 29016KT 04/02 A2953 RMK A01 T00350021  RH  090%=      5-min Rain = 0
KPD4 231612Z 31014KT 03/02 A2953 RMK A01 T00340020  RH  091%=      5-min Rain = 0
KPD4 231613Z 31012KT 03/02 A2953 RMK A01 T00310019  RH  092%=      5-min Rain = 0
KPD4 231614Z 31015KT 03/02 A2953 RMK A01 T00300018  RH  092%=      5-min Rain = 0
KPD4 231615Z 31015KT 03/02 A2953 RMK A01 T00290018  RH  092%=      5-min Rain = 0
KPD4 231616Z 31014KT 03/02 A2953 RMK A01 T00280018  RH  093%=      5-min Rain = 0
KPD4 231617Z 30015KT 03/02 A2953 RMK A01 T00280018  RH  093%=      5-min Rain = 0
KPD4 231618Z 30014KT 03/02 A2953 RMK A01 T00280018  RH  093%=      5-min Rain = 0
KPD4 231619Z 31017KT 03/02 A2954 RMK A01 T00280017  RH  093%=      5-min Rain = 0
KPD4 231620Z 31016KT 03/02 A2954 RMK A01 T00280017  RH  093%=      5-min Rain = 0
KPD4 231621Z 31014G20KT 03/02 A2954 RMK A01 T00280018  RH  093%=      5-min Rain = 0
KPD4 231622Z 31017KT 03/02 A2954 RMK A01 T00280018  RH  094%=      5-min Rain = 0
KPD4 231623Z 31017KT 03/02 A2954 RMK A01 T00280018  RH  094%=      5-min Rain = 0
KPD4 231624Z 30019KT 03/02 A2954 RMK A01 T00270018  RH  094%=      5-min Rain = 0
KPD4 231625Z 31019KT 03/02 A2954 RMK A01 T00270017  RH  093%=      5-min Rain = 0
KPD4 231626Z 31020KT 03/02 A2955 RMK A01 T00260017  RH  094%=      5-min Rain = 0.01
KPD4 231627Z 32019KT 03/02 A2955 RMK A01 T00250015  RH  093%=      5-min Rain = 0
KPD4 231628Z 32018KT 02/01 A2955 RMK A01 T00230013  RH  093%=      5-min Rain = 0
KPD4 231629Z 32022G27KT 02/01 A2956 RMK A01 T00210012  RH  094%=      5-min Rain = 0
KPD4 231630Z 32024KT 02/01 A2956 RMK A01 T00170007  RH  093%=      5-min Rain = 0
KPD4 231631Z 33019G24KT 01/00 A2956 RMK A01 T00130002  RH  093%=      5-min Rain = 0
KPD4 231632Z 33020KT 01/00 A2956 RMK A01 T00100001  RH  094%=      5-min Rain = 0
KPD4 231633Z 32020KT 01/00 A2956 RMK A01 T00080000  RH  094%=      5-min Rain = 0
KPD4 231634Z 32020KT 01/00 A2957 RMK A01 T00080000  RH  095%=      5-min Rain = 0
KPD4 231635Z 33022KT 01/00 A2957 RMK A01 T00070000  RH  095%=      5-min Rain = 0
KPD4 231636Z 33021KT 01/00 A2957 RMK A01 T00070001  RH  096%=      5-min Rain = 0
KPD4 231637Z 33018KT 01/00 A2957 RMK A01 T00080002  RH  096%=      5-min Rain = 0
KPD4 231638Z 32020G25KT 01/00 A2957 RMK A01 T00090003  RH  096%=      5-min Rain = 0
KPD4 231639Z 33018KT 01/00 A2957 RMK A01 T00090004  RH  096%=      5-min Rain = 0
KPD4 231640Z 33021G26KT 01/01 A2958 RMK A01 T00100005  RH  096%=      5-min Rain = 0
KPD4 231641Z 33021G26KT 01/01 A2958 RMK A01 T00110006  RH  096%=      5-min Rain = 0
KPD4 231642Z 33023KT 01/01 A2958 RMK A01 T00110006  RH  096%=      5-min Rain = 0
KPD4 231643Z 33020KT 01/01 A2958 RMK A01 T00110006  RH  096%=      5-min Rain = 0
KPD4 231644Z 32021KT 01/01 A2958 RMK A01 T00110006  RH  096%=      5-min Rain = 0
KPD4 231645Z 33018KT 01/01 A2958 RMK A01 T00110006  RH  096%=      5-min Rain = 0
KPD4 231646Z 33021KT 01/01 A2958 RMK A01 T00120007  RH  096%=      5-min Rain = 0
KPD4 231647Z 33024KT 01/01 A2958 RMK A01 T00120007  RH  096%=      5-min Rain = 0
KPD4 231648Z 33026KT 01/01 A2958 RMK A01 T00120006  RH  096%=      5-min Rain = 0
KPD4 231649Z 33025G32KT 01/01 A2959 RMK A01 T00120005  RH  095%=      5-min Rain = 0
KPD4 231650Z 33019KT 01/01 A2959 RMK A01 T00120005  RH  095%=      5-min Rain = 0.01
KPD4 231651Z 33021G29KT 01/01 A2959 RMK A01 T00120006  RH  096%=      5-min Rain = 0
KPD4 231652Z 33026G31KT 01/01 A2959 RMK A01 T00120006  RH  096%=      5-min Rain = 0
KPD4 231653Z 32020KT 01/01 A2959 RMK A01 T00120005  RH  095%=      5-min Rain = 0
KPD4 231654Z 33024G33KT 01/01 A2959 RMK A01 T00110005  RH  095%=      5-min Rain = 0
KPD4 231655Z 33026KT 01/00 A2959 RMK A01 T00110004  RH  095%=      5-min Rain = 0
KPD4 231656Z 33027G33KT 01/00 A2959 RMK A01 T00110003  RH  095%=      5-min Rain = 0
KPD4 231657Z 33028G33KT 01/00 A2959 RMK A01 T00110003  RH  095%=      5-min Rain = 0
KPD4 231658Z 33028G33KT 01/00 A2959 RMK A01 T00100002  RH  094%=      5-min Rain = 0
KPD4 231659Z 33027G35KT 01/00 A296 RMK A01 T00100002  RH  094%=      5-min Rain = 0
KPD4 231700Z 34031G37KT 01/00 A296 RMK A01 T00100002  RH  094%=      5-min Rain = 0
KPD4 231701Z 33030KT 01/00 A296 RMK A01 T00100001  RH  094%=      5-min Rain = 0
KPD4 231702Z 34032G38KT 01/00 A296 RMK A01 T00100001  RH  094%=      5-min Rain = 0
KPD4 231703Z 34032G37KT 01/00 A296 RMK A01 T000900-0  RH  093%=      5-min Rain = 0
KPD4 231704Z 34036G43KT 01/M00 A296 RMK A01 T00091001  RH  093%=      5-min Rain = 0
KPD4 231705Z 34030KT 01/M00 A2961 RMK A01 T00091002  RH  092%=      5-min Rain = 0
KPD4 231706Z 34034G39KT 01/M00 A296 RMK A01 T00081002  RH  093%=      5-min Rain = 0
KPD4 231707Z 33029G35KT 01/M00 A2961 RMK A01 T00081002  RH  093%=      5-min Rain = 0
KPD4 231708Z 34032KT 01/M00 A2961 RMK A01 T00091001  RH  093%=      5-min Rain = 0
KPD4 231709Z 34026G31KT 01/M00 A2961 RMK A01 T00091001  RH  093%=      5-min Rain = 0
KPD4 231710Z 34030G41KT 01/00 A2961 RMK A01 T00090000  RH  094%=      5-min Rain = 0
KPD4 231711Z 34034G42KT 01/M00 A2961 RMK A01 T00091002  RH  093%=      5-min Rain = 0
KPD4 231712Z 33031G38KT 01/M00 A2962 RMK A01 T00091002  RH  092%=      5-min Rain = 0
KPD4 231713Z 34033G38KT 01/M00 A2962 RMK A01 T00081002  RH  093%=      5-min Rain = 0
KPD4 231714Z 34030KT 01/M00 A2962 RMK A01 T00081003  RH  092%=      5-min Rain = 0
KPD4 231715Z 33028G35KT 01/M00 A2962 RMK A01 T00081002  RH  093%=      5-min Rain = 0
KPD4 231716Z 33028KT 01/M00 A2962 RMK A01 T00081002  RH  093%=      5-min Rain = 0
KPD4 231717Z 33030G35KT 01/M00 A2963 RMK A01 T00081003  RH  093%=      5-min Rain = 0
KPD4 231718Z 33032G43KT 01/M00 A2963 RMK A01 T00071003  RH  093%=      5-min Rain = 0
KPD4 231719Z 33031G36KT 01/M00 A2963 RMK A01 T00071004  RH  092%=      5-min Rain = 0
KPD4 231720Z 33030G37KT 01/M00 A2963 RMK A01 T00071004  RH  093%=      5-min Rain = 0
KPD4 231721Z 33033G42KT 01/M01 A2963 RMK A01 T00061005  RH  092%=      5-min Rain = 0
KPD4 231722Z 34034G43KT 01/M01 A2963 RMK A01 T00061006  RH  092%=      5-min Rain = 0
KPD4 231723Z 34032G40KT 01/M01 A2964 RMK A01 T00061006  RH  092%=      5-min Rain = 0
KPD4 231724Z 34035KT 01/M01 A2964 RMK A01 T00051006  RH  092%=      5-min Rain = 0
KPD4 231725Z 34032G39KT 01/M01 A2964 RMK A01 T00051007  RH  092%=      5-min Rain = 0
KPD4 231726Z 34027G37KT 01/M01 A2965 RMK A01 T00051006  RH  092%=      5-min Rain = 0
KPD4 231727Z 34032KT 01/M01 A2964 RMK A01 T00051006  RH  092%=      5-min Rain = 0
KPD4 231728Z 34031G39KT 01/M01 A2965 RMK A01 T00051006  RH  092%=      5-min Rain = 0
KPD4 231729Z 34030G36KT 01/M01 A2965 RMK A01 T00051006  RH  092%=      5-min Rain = 0
KPD4 231730Z 34033KT 01/M01 A2965 RMK A01 T00051007  RH  092%=      5-min Rain = 0
KPD4 231731Z 34033G39KT 01/M01 A2965 RMK A01 T00051007  RH  092%=      5-min Rain = 0
KPD4 231732Z 33029G34KT 01/M01 A2965 RMK A01 T00051007  RH  092%=      5-min Rain = 0
KPD4 231733Z 34029KT 01/M01 A2965 RMK A01 T00061006  RH  092%=      5-min Rain = 0
KPD4 231734Z 33030G37KT 01/M01 A2965 RMK A01 T00061005  RH  092%=      5-min Rain = 0
KPD4 231735Z 33028KT 01/M01 A2965 RMK A01 T00061005  RH  092%=      5-min Rain = 0
KPD4 231736Z 34030G37KT 01/M01 A2965 RMK A01 T00071005  RH  092%=      5-min Rain = 0
KPD4 231737Z 34025KT 01/M00 A2966 RMK A01 T00071004  RH  093%=      5-min Rain = 0
KPD4 231738Z 33030G38KT 01/M00 A2966 RMK A01 T00071004  RH  093%=      5-min Rain = 0
KPD4 231739Z 34031G42KT 01/M01 A2966 RMK A01 T00071005  RH  092%=      5-min Rain = 0
KPD4 231740Z 34036G43KT 01/M01 A2965 RMK A01 T00081006  RH  090%=      5-min Rain = 0
KPD4 231741Z 34031G37KT 01/M01 A2966 RMK A01 T00081006  RH  090%=      5-min Rain = 0
KPD4 231742Z 34031G36KT 01/M01 A2966 RMK A01 T00081005  RH  090%=      5-min Rain = 0
KPD4 231743Z 34030G37KT 01/M01 A2966 RMK A01 T00081005  RH  091%=      5-min Rain = 0
KPD4 231744Z 34030G35KT 01/M01 A2966 RMK A01 T00081005  RH  091%=      5-min Rain = 0
KPD4 231745Z 33029G35KT 01/M01 A2966 RMK A01 T00071005  RH  092%=      5-min Rain = 0
KPD4 231746Z 33025G32KT 01/M01 A2967 RMK A01 T00071005  RH  092%=      5-min Rain = 0
KPD4 231747Z 34032G41KT 01/M00 A2967 RMK A01 T00071004  RH  092%=      5-min Rain = 0
KPD4 231748Z 34035G42KT 01/M01 A2966 RMK A01 T00071005  RH  091%=      5-min Rain = 0
KPD4 231749Z 34033G38KT 01/M01 A2966 RMK A01 T00071006  RH  091%=      5-min Rain = 0
KPD4 231750Z 34032G38KT 01/M01 A2967 RMK A01 T00071006  RH  091%=      5-min Rain = 0
KPD4 231751Z 34031G40KT 01/M01 A2967 RMK A01 T00081006  RH  091%=      5-min Rain = 0
KPD4 231752Z 34032G38KT 01/M00 A2967 RMK A01 T00101004  RH  091%=      5-min Rain = 0
KPD4 231753Z 34031G39KT 01/M00 A2967 RMK A01 T00111003  RH  091%=      5-min Rain = 0
KPD4 231754Z 34032G37KT 01/M00 A2967 RMK A01 T00121003  RH  090%=      5-min Rain = 0
KPD4 231755Z 34034KT 01/M00 A2967 RMK A01 T00111004  RH  090%=      5-min Rain = 0
KPD4 231756Z 34035G40KT 01/M01 A2967 RMK A01 T00111005  RH  089%=      5-min Rain = 0
KPD4 231757Z 34039G46KT 01/M01 A2967 RMK A01 T00101006  RH  089%=      5-min Rain = 0
KPD4 231758Z 34033G40KT 01/M01 A2967 RMK A01 T00101008  RH  088%=      5-min Rain = 0
KPD4 231759Z 34038G43KT 01/M01 A2967 RMK A01 T00091010  RH  088%=      5-min Rain = 0
KPD4 231800Z 34033G43KT 01/M01 A2968 RMK A01 T00081010  RH  088%=      5-min Rain = 0
KPD4 231801Z 34034G42KT 01/M01 A2967 RMK A01 T00071009  RH  089%=      5-min Rain = 0
KPD4 231802Z 34037KT 01/M01 A2968 RMK A01 T00081008  RH  089%=      5-min Rain = 0
KPD4 231803Z 34037G44KT 01/M01 A2967 RMK A01 T00081009  RH  088%=      5-min Rain = 0
KPD4 231804Z 34033G44KT 01/M01 A2968 RMK A01 T00081009  RH  088%=      5-min Rain = 0
KPD4 231805Z 34040G45KT 01/M01 A2968 RMK A01 T00071010  RH  088%=      5-min Rain = 0
KPD4 231806Z 34034G43KT 01/M01 A2968 RMK A01 T00061013  RH  087%=      5-min Rain = 0
KPD4 231807Z 34035G42KT 01/M01 A2968 RMK A01 T00061011  RH  088%=      5-min Rain = 0
KPD4 231808Z 34038G45KT 01/M01 A2968 RMK A01 T00061010  RH  089%=      5-min Rain = 0
KPD4 231809Z 34039G45KT 01/M01 A2968 RMK A01 T00061013  RH  088%=      5-min Rain = 0
KPD4 231810Z 34040G45KT 01/M02 A2968 RMK A01 T00051015  RH  087%=      5-min Rain = 0
KPD4 231811Z 34039G44KT 01/M02 A2968 RMK A01 T00051016  RH  086%=      5-min Rain = 0
KPD4 231812Z 34041G48KT 00/M02 A2968 RMK A01 T00041017  RH  086%=      5-min Rain = 0
KPD4 231813Z 34037G46KT 01/M02 A2968 RMK A01 T00051016  RH  086%=      5-min Rain = 0
KPD4 231814Z 34035G40KT 01/M01 A2968 RMK A01 T00061014  RH  087%=      5-min Rain = 0
KPD4 231815Z 34028G34KT 01/M01 A2969 RMK A01 T00071010  RH  088%=      5-min Rain = 0
KPD4 231816Z 34032G38KT 01/M01 A2969 RMK A01 T00091008  RH  088%=      5-min Rain = 0
KPD4 231817Z 34034KT 01/M01 A2969 RMK A01 T00101009  RH  088%=      5-min Rain = 0
KPD4 231818Z 34032G38KT 01/M01 A2969 RMK A01 T00101009  RH  087%=      5-min Rain = 0
KPD4 231819Z 34031KT 01/M01 A2969 RMK A01 T00101010  RH  087%=      5-min Rain = 0
KPD4 231820Z 33029G41KT 01/M01 A2969 RMK A01 T00091009  RH  088%=      5-min Rain = 0
KPD4 231821Z 33032G37KT 01/M01 A2969 RMK A01 T00081011  RH  087%=      5-min Rain = 0
KPD4 231822Z 33032G38KT 01/M01 A2969 RMK A01 T00061013  RH  087%=      5-min Rain = 0
KPD4 231823Z 33034G39KT 01/M01 A297 RMK A01 T00051013  RH  088%=      5-min Rain = 0
KPD4 231824Z 33031G42KT 01/M01 A297 RMK A01 T00051014  RH  088%=      5-min Rain = 0
KPD4 231825Z 33037KT 01/M01 A297 RMK A01 T00051014  RH  087%=      5-min Rain = 0
KPD4 231826Z 33037G42KT 00/M02 A2969 RMK A01 T00041016  RH  086%=      5-min Rain = 0
KPD4 231827Z 34032G43KT 00/M02 A297 RMK A01 T00041017  RH  086%=      5-min Rain = 0
KPD4 231828Z 34034G49KT 01/M02 A297 RMK A01 T00051016  RH  086%=      5-min Rain = 0
KPD4 231829Z 34033G38KT 01/M01 A297 RMK A01 T00071014  RH  086%=      5-min Rain = 0
KPD4 231830Z 34031G38KT 01/M01 A297 RMK A01 T00081013  RH  086%=      5-min Rain = 0
KPD4 231831Z 34033G43KT 01/M01 A297 RMK A01 T00081013  RH  086%=      5-min Rain = 0
KPD4 231832Z 34038G46KT 01/M02 A297 RMK A01 T00071016  RH  084%=      5-min Rain = 0
KPD4 231833Z 34035G42KT 01/M02 A297 RMK A01 T00061017  RH  084%=      5-min Rain = 0
KPD4 231834Z 34034G41KT 01/M02 A297 RMK A01 T00071016  RH  085%=      5-min Rain = 0
KPD4 231835Z 34034G41KT 01/M02 A2971 RMK A01 T00071015  RH  085%=      5-min Rain = 0
KPD4 231836Z 33034G42KT 01/M02 A2971 RMK A01 T00081016  RH  084%=      5-min Rain = 0
KPD4 231837Z 33034G40KT 01/M02 A2971 RMK A01 T00081017  RH  084%=      5-min Rain = 0
KPD4 231838Z 34038G44KT 01/M02 A297 RMK A01 T00081017  RH  084%=      5-min Rain = 0
KPD4 231839Z 34037G45KT 01/M02 A2971 RMK A01 T00081019  RH  083%=      5-min Rain = 0
KPD4 231840Z 33036G43KT 01/M02 A2971 RMK A01 T00071019  RH  083%=      5-min Rain = 0
KPD4 231841Z 33037G44KT 01/M02 A2971 RMK A01 T00081019  RH  083%=      5-min Rain = 0
KPD4 231842Z 34038G46KT 01/M02 A2971 RMK A01 T00081019  RH  082%=      5-min Rain = 0
KPD4 231843Z 34034G41KT 01/M02 A2971 RMK A01 T00091019  RH  082%=      5-min Rain = 0
KPD4 231844Z 34038G44KT 01/M02 A2972 RMK A01 T00091019  RH  082%=      5-min Rain = 0
KPD4 231845Z 33034G43KT 01/M02 A2972 RMK A01 T00091018  RH  082%=      5-min Rain = 0
KPD4 231846Z 33033KT 01/M02 A2972 RMK A01 T00091018  RH  083%=      5-min Rain = 0
KPD4 231847Z 33032G41KT 01/M02 A2972 RMK A01 T00081018  RH  083%=      5-min Rain = 0
KPD4 231848Z 33035KT 01/M02 A2972 RMK A01 T00081017  RH  083%=      5-min Rain = 0
KPD4 231849Z 34034G40KT 01/M02 A2972 RMK A01 T00081018  RH  083%=      5-min Rain = 0
KPD4 231850Z 34030G37KT 01/M02 A2972 RMK A01 T00071019  RH  083%=      5-min Rain = 0
KPD4 231851Z 34032G40KT 01/M02 A2972 RMK A01 T00071018  RH  083%=      5-min Rain = 0
KPD4 231852Z 34034G40KT 01/M02 A2972 RMK A01 T00081017  RH  083%=      5-min Rain = 0
KPD4 231853Z 34037G42KT 01/M02 A2972 RMK A01 T00091018  RH  082%=      5-min Rain = 0
KPD4 231854Z 33032G41KT 01/M01 A2972 RMK A01 T00131014  RH  083%=      5-min Rain = 0
KPD4 231855Z 34032G40KT 01/M01 A2973 RMK A01 T00141014  RH  082%=      5-min Rain = 0
KPD4 231856Z 34034KT 01/M02 A2973 RMK A01 T00131016  RH  081%=      5-min Rain = 0
KPD4 231857Z 33030G38KT 01/M02 A2973 RMK A01 T00131017  RH  081%=      5-min Rain = 0
KPD4 231858Z 34032G38KT 01/M02 A2973 RMK A01 T00131015  RH  082%=      5-min Rain = 0
KPD4 231859Z 34026G32KT 01/M01 A2973 RMK A01 T00131014  RH  082%=      5-min Rain = 0
KPD4 231900Z 34031G39KT 02/M01 A2973 RMK A01 T00161011  RH  083%=      5-min Rain = 0
KPD4 231901Z 34035G40KT 02/M01 A2973 RMK A01 T00171013  RH  081%=      5-min Rain = 0
KPD4 231902Z 34032G38KT 02/M01 A2973 RMK A01 T00181012  RH  080%=      5-min Rain = 0
KPD4 231903Z 34028G33KT 02/M01 A2973 RMK A01 T00191010  RH  081%=      5-min Rain = 0
KPD4 231904Z 34028G35KT 02/M01 A2973 RMK A01 T00181011  RH  081%=      5-min Rain = 0
KPD4 231905Z 33030G36KT 02/M01 A2974 RMK A01 T00161012  RH  082%=      5-min Rain = 0
KPD4 231906Z 34031G37KT 01/M02 A2974 RMK A01 T00131016  RH  082%=      5-min Rain = 0
KPD4 231907Z 34033KT 01/M02 A2974 RMK A01 T00111017  RH  081%=      5-min Rain = 0
KPD4 231908Z 34032G38KT 01/M02 A2974 RMK A01 T00111018  RH  081%=      5-min Rain = 0
KPD4 231909Z 34027G35KT 01/M02 A2974 RMK A01 T00101019  RH  081%=      5-min Rain = 0
KPD4 231910Z 34030KT 01/M02 A2974 RMK A01 T00111017  RH  082%=      5-min Rain = 0
KPD4 231911Z 34029G36KT 01/M02 A2974 RMK A01 T00111017  RH  082%=      5-min Rain = 0
KPD4 231912Z 34030G35KT 01/M02 A2974 RMK A01 T00111016  RH  082%=      5-min Rain = 0
KPD4 231913Z 33029G38KT 01/M02 A2974 RMK A01 T00111017  RH  081%=      5-min Rain = 0
KPD4 231914Z 34030G37KT 01/M02 A2974 RMK A01 T00101018  RH  081%=      5-min Rain = 0
KPD4 231915Z 34032G39KT 01/M02 A2974 RMK A01 T00101018  RH  081%=      5-min Rain = 0
KPD4 231916Z 33032G37KT 01/M02 A2974 RMK A01 T00101018  RH  082%=      5-min Rain = 0
KPD4 231917Z 33029G38KT 01/M02 A2974 RMK A01 T00101018  RH  082%=      5-min Rain = 0
KPD4 231918Z 33034G40KT 01/M02 A2974 RMK A01 T00101018  RH  082%=      5-min Rain = 0
KPD4 231919Z 34035G40KT 01/M02 A2974 RMK A01 T00091020  RH  081%=      5-min Rain = 0
KPD4 231920Z 34033G39KT 01/M02 A2974 RMK A01 T00091020  RH  081%=      5-min Rain = 0
KPD4 231921Z 34031G37KT 01/M02 A2974 RMK A01 T00091020  RH  081%=      5-min Rain = 0
KPD4 231922Z 34030G36KT 01/M02 A2975 RMK A01 T00091018  RH  082%=      5-min Rain = 0
KPD4 231923Z 34030G36KT 01/M02 A2974 RMK A01 T00101016  RH  083%=      5-min Rain = 0
KPD4 231924Z 34031G39KT 01/M02 A2974 RMK A01 T00111015  RH  083%=      5-min Rain = 0
KPD4 231925Z 34028G34KT 01/M01 A2975 RMK A01 T00131014  RH  082%=      5-min Rain = 0
KPD4 231926Z 34032G38KT 01/M01 A2975 RMK A01 T00141014  RH  082%=      5-min Rain = 0
KPD4 231927Z 34035G42KT 01/M02 A2975 RMK A01 T00141017  RH  080%=      5-min Rain = 0
KPD4 231928Z 34028G35KT 01/M02 A2975 RMK A01 T00131018  RH  080%=      5-min Rain = 0
KPD4 231929Z 34028G35KT 01/M02 A2975 RMK A01 T00131015  RH  082%=      5-min Rain = 0
KPD4 231930Z 33030KT 01/M01 A2975 RMK A01 T00131014  RH  082%=      5-min Rain = 0
KPD4 231931Z 33030G37KT 01/M02 A2975 RMK A01 T00131015  RH  082%=      5-min Rain = 0
KPD4 231932Z 33033KT 01/M02 A2975 RMK A01 T00131015  RH  081%=      5-min Rain = 0
KPD4 231933Z 34036G42KT 01/M02 A2975 RMK A01 T00141016  RH  080%=      5-min Rain = 0
KPD4 231934Z 34033KT 02/M02 A2975 RMK A01 T00151017  RH  079%=      5-min Rain = 0
KPD4 231935Z 33028G35KT 02/M02 A2975 RMK A01 T00151017  RH  079%=      5-min Rain = 0
KPD4 231936Z 34026G34KT 02/M02 A2976 RMK A01 T00161015  RH  080%=      5-min Rain = 0
KPD4 231937Z 33023G28KT 02/M01 A2976 RMK A01 T00181009  RH  082%=      5-min Rain = 0
KPD4 231938Z 34029G37KT 02/M01 A2975 RMK A01 T00201010  RH  080%=      5-min Rain = 0
KPD4 231939Z 33035G43KT 02/M01 A2975 RMK A01 T00191014  RH  079%=      5-min Rain = 0
KPD4 231940Z 33033G38KT 02/M02 A2976 RMK A01 T00181017  RH  078%=      5-min Rain = 0
KPD4 231941Z 33033KT 02/M02 A2976 RMK A01 T00171017  RH  078%=      5-min Rain = 0
KPD4 231942Z 33033KT 02/M02 A2975 RMK A01 T00161019  RH  078%=      5-min Rain = 0
KPD4 231943Z 34032G38KT 01/M02 A2976 RMK A01 T00141019  RH  079%=      5-min Rain = 0
KPD4 231944Z 34026G33KT 01/M02 A2976 RMK A01 T00141017  RH  080%=      5-min Rain = 0
KPD4 231945Z 33030G35KT 02/M01 A2976 RMK A01 T00151014  RH  081%=      5-min Rain = 0
KPD4 231946Z 33033G38KT 02/M02 A2976 RMK A01 T00161015  RH  080%=      5-min Rain = 0
KPD4 231947Z 34034G39KT 02/M02 A2976 RMK A01 T00151019  RH  078%=      5-min Rain = 0
KPD4 231948Z 34031G36KT 01/M02 A2976 RMK A01 T00141019  RH  079%=      5-min Rain = 0
KPD4 231949Z 33034G41KT 01/M02 A2976 RMK A01 T00141019  RH  079%=      5-min Rain = 0
KPD4 231950Z 33033G42KT 02/M02 A2976 RMK A01 T00171017  RH  078%=      5-min Rain = 0
KPD4 231951Z 34037G42KT 02/M02 A2976 RMK A01 T00181019  RH  076%=      5-min Rain = 0
KPD4 231952Z 34036KT 02/M02 A2977 RMK A01 T00191019  RH  076%=      5-min Rain = 0
KPD4 231953Z 34032G37KT 02/M02 A2977 RMK A01 T00191018  RH  077%=      5-min Rain = 0
KPD4 231954Z 33031KT 02/M02 A2977 RMK A01 T00191017  RH  077%=      5-min Rain = 0
KPD4 231955Z 33030G37KT 02/M02 A2977 RMK A01 T00201015  RH  078%=      5-min Rain = 0
KPD4 231956Z 33030G36KT 02/M02 A2977 RMK A01 T00201015  RH  077%=      5-min Rain = 0
KPD4 231957Z 33031KT 02/M02 A2977 RMK A01 T00191018  RH  076%=      5-min Rain = 0
KPD4 231958Z 34030G35KT 02/M02 A2977 RMK A01 T00191018  RH  077%=      5-min Rain = 0
KPD4 231959Z 34027KT 02/M02 A2977 RMK A01 T00191017  RH  077%=      5-min Rain = 0
KPD4 232000Z 34029G35KT 02/M02 A2977 RMK A01 T00201016  RH  077%=      5-min Rain = 0
KPD4 232001Z 34029G36KT 02/M02 A2977 RMK A01 T00201016  RH  077%=      5-min Rain = 0
KPD4 232002Z 34028G33KT 02/M02 A2978 RMK A01 T00191018  RH  076%=      5-min Rain = 0
KPD4 232003Z 34027G32KT 02/M02 A2978 RMK A01 T00181018  RH  077%=      5-min Rain = 0
KPD4 232004Z 34026G32KT 02/M02 A2978 RMK A01 T00181016  RH  078%=      5-min Rain = 0
KPD4 232005Z 33025G32KT 02/M02 A2978 RMK A01 T00191015  RH  078%=      5-min Rain = 0
KPD4 232006Z 33033G38KT 02/M02 A2978 RMK A01 T00201016  RH  077%=      5-min Rain = 0
KPD4 232007Z 33030G39KT 02/M02 A2978 RMK A01 T00201019  RH  076%=      5-min Rain = 0
KPD4 232008Z 33031G36KT 02/M02 A2978 RMK A01 T00191019  RH  076%=      5-min Rain = 0
KPD4 232009Z 33026G31KT 02/M02 A2978 RMK A01 T00201019  RH  075%=      5-min Rain = 0
KPD4 232010Z 33028G34KT 02/M02 A2979 RMK A01 T00191018  RH  076%=      5-min Rain = 0
KPD4 232011Z 33027G32KT 02/M02 A2979 RMK A01 T00181020  RH  076%=      5-min Rain = 0
KPD4 232012Z 33030G37KT 02/M02 A2979 RMK A01 T00171020  RH  077%=      5-min Rain = 0
KPD4 232013Z 33026G31KT 02/M02 A2979 RMK A01 T00161020  RH  077%=      5-min Rain = 0
KPD4 232014Z 32030G37KT 02/M02 A2979 RMK A01 T00171019  RH  077%=      5-min Rain = 0
KPD4 232015Z 33030G35KT 02/M02 A2979 RMK A01 T00171021  RH  076%=      5-min Rain = 0
KPD4 232016Z 33028G34KT 02/M02 A2979 RMK A01 T00161022  RH  076%=      5-min Rain = 0
KPD4 232017Z 33029G34KT 02/M02 A2979 RMK A01 T00161022  RH  076%=      5-min Rain = 0
KPD4 232018Z 33029G36KT 02/M02 A298 RMK A01 T00161023  RH  075%=      5-min Rain = 0
KPD4 232019Z 33025KT 02/M02 A298 RMK A01 T00171020  RH  076%=      5-min Rain = 0
KPD4 232020Z 33026G32KT 02/M02 A298 RMK A01 T00191019  RH  076%=      5-min Rain = 0
KPD4 232021Z 33026G32KT 02/M02 A298 RMK A01 T00191020  RH  075%=      5-min Rain = 0
KPD4 232022Z 33024G32KT 02/M02 A298 RMK A01 T00201020  RH  075%=      5-min Rain = 0
KPD4 232023Z 32027G35KT 02/M02 A298 RMK A01 T00201020  RH  075%=      5-min Rain = 0
KPD4 232024Z 33033KT 02/M02 A298 RMK A01 T00201022  RH  074%=      5-min Rain = 0
KPD4 232025Z 33033G39KT 02/M02 A298 RMK A01 T00201024  RH  073%=      5-min Rain = 0
KPD4 232026Z 33033G39KT 02/M03 A298 RMK A01 T00211025  RH  072%=      5-min Rain = 0
KPD4 232027Z 33030G35KT 02/M02 A298 RMK A01 T00231022  RH  072%=      5-min Rain = 0
KPD4 232028Z 33029G35KT 02/M02 A298 RMK A01 T00231023  RH  071%=      5-min Rain = 0
KPD4 232029Z 34029KT 02/M03 A298 RMK A01 T00221025  RH  071%=      5-min Rain = 0
KPD4 232030Z 34027G32KT 02/M03 A298 RMK A01 T00211025  RH  072%=      5-min Rain = 0
KPD4 232031Z 33029G34KT 02/M02 A298 RMK A01 T00201024  RH  073%=      5-min Rain = 0
KPD4 232032Z 33030G36KT 02/M03 A2981 RMK A01 T00191025  RH  073%=      5-min Rain = 0
KPD4 232033Z 33024G36KT 02/M02 A2981 RMK A01 T00191024  RH  073%=      5-min Rain = 0
KPD4 232034Z 33030G35KT 02/M02 A2981 RMK A01 T00201024  RH  073%=      5-min Rain = 0
KPD4 232035Z 32031KT 02/M03 A2981 RMK A01 T00191025  RH  072%=      5-min Rain = 0
KPD4 232036Z 33032KT 02/M03 A2981 RMK A01 T00201026  RH  072%=      5-min Rain = 0
KPD4 232037Z 32030KT 02/M03 A2981 RMK A01 T00191027  RH  072%=      5-min Rain = 0
KPD4 232038Z 33028KT 02/M03 A2981 RMK A01 T00181026  RH  072%=      5-min Rain = 0
KPD4 232039Z 32024KT 02/M02 A2982 RMK A01 T00181024  RH  074%=      5-min Rain = 0
KPD4 232040Z 33027KT 02/M02 A2981 RMK A01 T00191022  RH  074%=      5-min Rain = 0
KPD4 232041Z 33030KT 02/M02 A2982 RMK A01 T00191024  RH  073%=      5-min Rain = 0
KPD4 232042Z 33027G33KT 02/M03 A2982 RMK A01 T00181027  RH  072%=      5-min Rain = 0
KPD4 232043Z 33027G33KT 02/M03 A2982 RMK A01 T00181026  RH  073%=      5-min Rain = 0
KPD4 232044Z 33030G37KT 02/M03 A2982 RMK A01 T00191027  RH  072%=      5-min Rain = 0
KPD4 232045Z 33022G28KT 02/M03 A2982 RMK A01 T00191026  RH  072%=      5-min Rain = 0
KPD4 232046Z 33027KT 02/M02 A2982 RMK A01 T00201024  RH  073%=      5-min Rain = 0
KPD4 232047Z 33028G33KT 02/M03 A2982 RMK A01 T00191026  RH  072%=      5-min Rain = 0
KPD4 232048Z 33024KT 02/M03 A2983 RMK A01 T00181027  RH  072%=      5-min Rain = 0
KPD4 232049Z 33023G29KT 02/M03 A2983 RMK A01 T00181027  RH  072%=      5-min Rain = 0
KPD4 232050Z 33028KT 02/M03 A2983 RMK A01 T00181026  RH  072%=      5-min Rain = 0
KPD4 232051Z 33027G33KT 02/M03 A2983 RMK A01 T00181029  RH  071%=      5-min Rain = 0
KPD4 232052Z 33028KT 02/M03 A2983 RMK A01 T00171029  RH  071%=      5-min Rain = 0
KPD4 232053Z 33024KT 02/M03 A2983 RMK A01 T00171028  RH  072%=      5-min Rain = 0
KPD4 232054Z 32029G37KT 02/M03 A2983 RMK A01 T00181025  RH  073%=      5-min Rain = 0
KPD4 232055Z 32029G34KT 02/M03 A2983 RMK A01 T00181028  RH  072%=      5-min Rain = 0
KPD4 232056Z 32028G36KT 02/M03 A2983 RMK A01 T00191027  RH  071%=      5-min Rain = 0
KPD4 232057Z 32025G30KT 02/M03 A2984 RMK A01 T00201027  RH  071%=      5-min Rain = 0
KPD4 232058Z 33028G37KT 02/M03 A2983 RMK A01 T00221025  RH  071%=      5-min Rain = 0
KPD4 232059Z 33032G37KT 02/M03 A2984 RMK A01 T00221030  RH  068%=      5-min Rain = 0
KPD4 232100Z 32030KT 02/M03 A2984 RMK A01 T00201032  RH  068%=      5-min Rain = 0
KPD4 232101Z 33028G35KT 02/M03 A2984 RMK A01 T00201030  RH  069%=      5-min Rain = 0
KPD4 232102Z 33024G31KT 02/M03 A2984 RMK A01 T00231025  RH  070%=      5-min Rain = 0
KPD4 232103Z 33028G34KT 03/M02 A2984 RMK A01 T00271022  RH  070%=      5-min Rain = 0
KPD4 232104Z 33029KT 03/M03 A2984 RMK A01 T00281025  RH  068%=      5-min Rain = 0
KPD4 232105Z 32022G27KT 03/M03 A2984 RMK A01 T00261025  RH  069%=      5-min Rain = 0
KPD4 232106Z 32026KT 03/M02 A2984 RMK A01 T00261023  RH  070%=      5-min Rain = 0
KPD4 232107Z 32028KT 03/M03 A2984 RMK A01 T00251025  RH  070%=      5-min Rain = 0
KPD4 232108Z 32030G37KT 02/M03 A2984 RMK A01 T00231027  RH  070%=      5-min Rain = 0
KPD4 232109Z 32027G32KT 03/M02 A2984 RMK A01 T00251024  RH  070%=      5-min Rain = 0
KPD4 232110Z 32031KT 03/M02 A2984 RMK A01 T00301021  RH  069%=      5-min Rain = 0
KPD4 232111Z 32030G35KT 03/M03 A2984 RMK A01 T00291025  RH  067%=      5-min Rain = 0
KPD4 232112Z 32029G34KT 03/M03 A2984 RMK A01 T00281027  RH  067%=      5-min Rain = 0
KPD4 232113Z 33030KT 03/M03 A2985 RMK A01 T00271028  RH  067%=      5-min Rain = 0
KPD4 232114Z 34027G35KT 03/M03 A2984 RMK A01 T00281027  RH  067%=      5-min Rain = 0
KPD4 232115Z 34028G33KT 03/M03 A2984 RMK A01 T00261030  RH  066%=      5-min Rain = 0
KPD4 232116Z 34030KT 02/M03 A2984 RMK A01 T00231032  RH  067%=      5-min Rain = 0
KPD4 232117Z 33025G34KT 02/M03 A2984 RMK A01 T00211031  RH  068%=      5-min Rain = 0
KPD4 232118Z 33021G28KT 02/M03 A2985 RMK A01 T00221027  RH  070%=      5-min Rain = 0
KPD4 232119Z 33022KT 03/M02 A2985 RMK A01 T00261022  RH  070%=      5-min Rain = 0
KPD4 232120Z 32024G29KT 03/M02 A2985 RMK A01 T00291021  RH  070%=      5-min Rain = 0
KPD4 232121Z 31024G35KT 03/M02 A2985 RMK A01 T00311018  RH  070%=      5-min Rain = 0
KPD4 232122Z 32027G32KT 03/M02 A2984 RMK A01 T00331019  RH  069%=      5-min Rain = 0
KPD4 232123Z 32028KT 03/M02 A2985 RMK A01 T00311024  RH  067%=      5-min Rain = 0
KPD4 232124Z 32027KT 03/M02 A2985 RMK A01 T00301024  RH  068%=      5-min Rain = 0
KPD4 232125Z 32026KT 03/M03 A2985 RMK A01 T00291025  RH  068%=      5-min Rain = 0
KPD4 232126Z 32026G35KT 03/M02 A2985 RMK A01 T00291023  RH  069%=      5-min Rain = 0
KPD4 232127Z 33028KT 03/M03 A2985 RMK A01 T00291025  RH  067%=      5-min Rain = 0
KPD4 232128Z 33028G33KT 03/M03 A2985 RMK A01 T00271029  RH  067%=      5-min Rain = 0
KPD4 232129Z 33026G32KT 03/M03 A2985 RMK A01 T00261030  RH  067%=      5-min Rain = 0
KPD4 232130Z 32022G27KT 03/M03 A2986 RMK A01 T00271025  RH  068%=      5-min Rain = 0
KPD4 232131Z 33027G34KT 03/M02 A2986 RMK A01 T00291024  RH  068%=      5-min Rain = 0
KPD4 232132Z 32030G35KT 03/M03 A2986 RMK A01 T00281028  RH  067%=      5-min Rain = 0
KPD4 232133Z 33031KT 03/M03 A2986 RMK A01 T00261031  RH  066%=      5-min Rain = 0
KPD4 232134Z 32029KT 02/M03 A2986 RMK A01 T00241032  RH  066%=      5-min Rain = 0
KPD4 232135Z 33027G33KT 02/M03 A2986 RMK A01 T00231033  RH  067%=      5-min Rain = 0
KPD4 232136Z 33028G34KT 02/M03 A2987 RMK A01 T00231031  RH  068%=      5-min Rain = 0
KPD4 232137Z 33026G32KT 02/M03 A2987 RMK A01 T00241029  RH  068%=      5-min Rain = 0
KPD4 232138Z 33029G36KT 03/M03 A2987 RMK A01 T00261027  RH  068%=      5-min Rain = 0
KPD4 232139Z 32030KT 03/M03 A2987 RMK A01 T00251032  RH  066%=      5-min Rain = 0
KPD4 232140Z 32027G34KT 02/M03 A2988 RMK A01 T00241032  RH  067%=      5-min Rain = 0
KPD4 232141Z 32027KT 02/M03 A2988 RMK A01 T00241028  RH  069%=      5-min Rain = 0
KPD4 232142Z 32028KT 02/M03 A2988 RMK A01 T00241029  RH  068%=      5-min Rain = 0
KPD4 232143Z 32024G29KT 02/M03 A2988 RMK A01 T00241030  RH  068%=      5-min Rain = 0
KPD4 232144Z 31024G29KT 03/M03 A2988 RMK A01 T00251025  RH  069%=      5-min Rain = 0
KPD4 232145Z 31028KT 03/M02 A2988 RMK A01 T00271024  RH  069%=      5-min Rain = 0
KPD4 232146Z 31029G34KT 03/M03 A2988 RMK A01 T00271026  RH  068%=      5-min Rain = 0
KPD4 232147Z 32025KT 03/M03 A2988 RMK A01 T00261027  RH  068%=      5-min Rain = 0
KPD4 232148Z 32027G33KT 03/M03 A2988 RMK A01 T00261026  RH  068%=      5-min Rain = 0
KPD4 232149Z 32026KT 03/M03 A2989 RMK A01 T00251028  RH  068%=      5-min Rain = 0
KPD4 232150Z 32026KT 02/M03 A2989 RMK A01 T00241028  RH  068%=      5-min Rain = 0
KPD4 232151Z 32025KT 02/M03 A2989 RMK A01 T00231028  RH  069%=      5-min Rain = 0
KPD4 232152Z 31029KT 02/M03 A2989 RMK A01 T00231029  RH  068%=      5-min Rain = 0
KPD4 232153Z 31026G33KT 02/M03 A2989 RMK A01 T00221030  RH  068%=      5-min Rain = 0
KPD4 232154Z 32025KT 02/M03 A2989 RMK A01 T00221030  RH  068%=      5-min Rain = 0
KPD4 232155Z 32023G32KT 02/M03 A299 RMK A01 T00221029  RH  069%=      5-min Rain = 0
KPD4 232156Z 32025G30KT 02/M03 A2989 RMK A01 T00231029  RH  069%=      5-min Rain = 0
KPD4 232157Z 31021KT 02/M03 A299 RMK A01 T00231031  RH  068%=      5-min Rain = 0
KPD4 232158Z 32024G30KT 02/M03 A299 RMK A01 T00231030  RH  068%=      5-min Rain = 0
KPD4 232159Z 32027KT 02/M03 A299 RMK A01 T00231032  RH  067%=      5-min Rain = 0
KPD4 232200Z 32026G31KT 02/M03 A299 RMK A01 T00231033  RH  067%=      5-min Rain = 0
KPD4 232201Z 32023KT 02/M03 A2991 RMK A01 T00231033  RH  067%=      5-min Rain = 0
KPD4 232202Z 32022KT 02/M03 A2991 RMK A01 T00241032  RH  066%=      5-min Rain = 0
KPD4 232203Z 32024G29KT 03/M03 A2991 RMK A01 T00271030  RH  066%=      5-min Rain = 0
KPD4 232204Z 32019KT 03/M03 A2991 RMK A01 T00281029  RH  066%=      5-min Rain = 0
KPD4 232205Z 32023KT 03/M03 A2991 RMK A01 T00301028  RH  066%=      5-min Rain = 0
KPD4 232206Z 32024G29KT 03/M03 A2991 RMK A01 T00311029  RH  065%=      5-min Rain = 0
KPD4 232207Z 33024G29KT 03/M03 A2991 RMK A01 T00301031  RH  064%=      5-min Rain = 0
KPD4 232208Z 32025KT 03/M03 A2991 RMK A01 T00311031  RH  064%=      5-min Rain = 0
KPD4 232209Z 32025KT 03/M03 A2991 RMK A01 T00311031  RH  064%=      5-min Rain = 0
KPD4 232210Z 32026KT 03/M03 A2991 RMK A01 T00321031  RH  063%=      5-min Rain = 0
KPD4 232211Z 32025G32KT 03/M03 A2991 RMK A01 T00341030  RH  063%=      5-min Rain = 0
KPD4 232212Z 32028KT 04/M03 A2991 RMK A01 T00351032  RH  062%=      5-min Rain = 0
KPD4 232213Z 33024G30KT 03/M03 A2991 RMK A01 T00341032  RH  062%=      5-min Rain = 0
KPD4 232214Z 32027G33KT 04/M03 A2992 RMK A01 T00351030  RH  062%=      5-min Rain = 0
KPD4 232215Z 32026G31KT 04/M03 A2992 RMK A01 T00351031  RH  062%=      5-min Rain = 0
KPD4 232216Z 32024KT 04/M03 A2992 RMK A01 T00361030  RH  062%=      5-min Rain = 0
KPD4 232217Z 32026KT 04/M03 A2992 RMK A01 T00381027  RH  063%=      5-min Rain = 0
KPD4 232218Z 32024KT 04/M03 A2992 RMK A01 T00381031  RH  061%=      5-min Rain = 0
KPD4 232219Z 32023G29KT 04/M03 A2992 RMK A01 T00361029  RH  062%=      5-min Rain = 0
KPD4 232220Z 32023KT 04/M03 A2992 RMK A01 T00371029  RH  062%=      5-min Rain = 0
KPD4 232221Z 32024KT 04/M03 A2992 RMK A01 T00371028  RH  063%=      5-min Rain = 0
KPD4 232222Z 32028G34KT 04/M03 A2992 RMK A01 T00371032  RH  061%=      5-min Rain = 0
KPD4 232223Z 32025G34KT 04/M04 A2992 RMK A01 T00351035  RH  060%=      5-min Rain = 0
KPD4 232224Z 33025KT 04/M03 A2992 RMK A01 T00351032  RH  061%=      5-min Rain = 0
KPD4 232225Z 32026G32KT 04/M03 A2992 RMK A01 T00361034  RH  060%=      5-min Rain = 0
KPD4 232226Z 32028KT 04/M03 A2992 RMK A01 T00351034  RH  060%=      5-min Rain = 0
KPD4 232227Z 32024KT 04/M04 A2992 RMK A01 T00351035  RH  060%=      5-min Rain = 0
KPD4 232228Z 33020G26KT 04/M03 A2992 RMK A01 T00351033  RH  061%=      5-min Rain = 0
KPD4 232229Z 33024G30KT 04/M03 A2992 RMK A01 T00371032  RH  061%=      5-min Rain = 0
KPD4 232230Z 33027KT 04/M04 A2992 RMK A01 T00371035  RH  060%=      5-min Rain = 0
KPD4 232231Z 33025KT 04/M03 A2992 RMK A01 T00361034  RH  060%=      5-min Rain = 0
KPD4 232232Z 33025KT 04/M03 A2993 RMK A01 T00351033  RH  061%=      5-min Rain = 0
KPD4 232233Z 32024KT 04/M03 A2993 RMK A01 T00351033  RH  061%=      5-min Rain = 0
KPD4 232234Z 32021G26KT 04/M03 A2993 RMK A01 T00361030  RH  062%=      5-min Rain = 0
KPD4 232235Z 33019G25KT 04/M03 A2993 RMK A01 T00391025  RH  063%=      5-min Rain = 0
KPD4 232236Z 32019G26KT 04/M03 A2993 RMK A01 T00411027  RH  061%=      5-min Rain = 0
KPD4 232237Z 32022KT 04/M03 A2993 RMK A01 T00421028  RH  060%=      5-min Rain = 0
KPD4 232238Z 32022KT 04/M03 A2993 RMK A01 T00391032  RH  060%=      5-min Rain = 0
KPD4 232239Z 32026KT 04/M03 A2993 RMK A01 T00381031  RH  061%=      5-min Rain = 0
KPD4 232240Z 33021KT 04/M03 A2993 RMK A01 T00371031  RH  061%=      5-min Rain = 0
KPD4 232241Z 32025KT 04/M03 A2993 RMK A01 T00391030  RH  061%=      5-min Rain = 0
KPD4 232242Z 32027KT 04/M03 A2993 RMK A01 T00391033  RH  060%=      5-min Rain = 0
KPD4 232243Z 32026KT 04/M04 A2993 RMK A01 T00371036  RH  059%=      5-min Rain = 0
KPD4 232244Z 32025KT 04/M04 A2993 RMK A01 T00361036  RH  060%=      5-min Rain = 0
KPD4 232245Z 33026G32KT 04/M04 A2994 RMK A01 T00371036  RH  059%=      5-min Rain = 0
KPD4 232246Z 32028KT 04/M04 A2994 RMK A01 T00361040  RH  057%=      5-min Rain = 0
KPD4 232247Z 32025KT 04/M04 A2994 RMK A01 T00351042  RH  057%=      5-min Rain = 0
KPD4 232248Z 32024G31KT 03/M04 A2994 RMK A01 T00341041  RH  058%=      5-min Rain = 0
KPD4 232249Z 32023G29KT 04/M04 A2994 RMK A01 T00351040  RH  058%=      5-min Rain = 0
KPD4 232250Z 32024KT 04/M04 A2994 RMK A01 T00361041  RH  057%=      5-min Rain = 0
KPD4 232251Z 32030KT 04/M05 A2994 RMK A01 T00361045  RH  055%=      5-min Rain = 0
KPD4 232252Z 32025KT 04/M05 A2994 RMK A01 T00351049  RH  054%=      5-min Rain = 0
KPD4 232253Z 32027KT 04/M05 A2994 RMK A01 T00351050  RH  054%=      5-min Rain = 0
KPD4 232254Z 32026G31KT 03/M05 A2995 RMK A01 T00341050  RH  054%=      5-min Rain = 0
KPD4 232255Z 32027KT 03/M05 A2994 RMK A01 T00341049  RH  055%=      5-min Rain = 0
KPD4 232256Z 31029KT 03/M05 A2994 RMK A01 T00331050  RH  055%=      5-min Rain = 0
KPD4 232257Z 31026G32KT 03/M05 A2994 RMK A01 T00331053  RH  053%=      5-min Rain = 0
KPD4 232258Z 32026G34KT 03/M05 A2995 RMK A01 T00321054  RH  053%=      5-min Rain = 0
KPD4 232259Z 31026G32KT 03/M06 A2995 RMK A01 T00331055  RH  052%=      5-min Rain = 0
KPD4 232300Z 32026KT 03/M06 A2995 RMK A01 T00331058  RH  051%=      5-min Rain = 0
KPD4 232301Z 32023G28KT 03/M06 A2995 RMK A01 T00321057  RH  052%=      5-min Rain = 0
KPD4 232302Z 32029G35KT 03/M06 A2995 RMK A01 T00321058  RH  052%=      5-min Rain = 0
KPD4 232303Z 32029KT 03/M06 A2995 RMK A01 T00321061  RH  050%=      5-min Rain = 0
KPD4 232304Z 32026G32KT 03/M06 A2995 RMK A01 T00311062  RH  050%=      5-min Rain = 0
KPD4 232305Z 32025G31KT 03/M06 A2995 RMK A01 T00311061  RH  051%=      5-min Rain = 0
KPD4 232306Z 32023KT 03/M06 A2995 RMK A01 T00311060  RH  051%=      5-min Rain = 0
KPD4 232307Z 33023G29KT 03/M06 A2995 RMK A01 T00321058  RH  052%=      5-min Rain = 0
KPD4 232308Z 32024KT 03/M06 A2995 RMK A01 T00331059  RH  051%=      5-min Rain = 0
KPD4 232309Z 32027G34KT 03/M06 A2996 RMK A01 T00331061  RH  050%=      5-min Rain = 0
KPD4 232310Z 32026G33KT 03/M06 A2996 RMK A01 T00321064  RH  049%=      5-min Rain = 0
KPD4 232311Z 32024G29KT 03/M07 A2996 RMK A01 T00321065  RH  049%=      5-min Rain = 0
KPD4 232312Z 32021KT 03/M06 A2996 RMK A01 T00321062  RH  050%=      5-min Rain = 0
KPD4 232313Z 32027G32KT 03/M06 A2996 RMK A01 T00321061  RH  050%=      5-min Rain = 0
KPD4 232314Z 31028KT 03/M07 A2996 RMK A01 T00331065  RH  049%=      5-min Rain = 0
KPD4 232315Z 32028KT 03/M07 A2996 RMK A01 T00321066  RH  049%=      5-min Rain = 0
KPD4 232316Z 32028KT 03/M07 A2996 RMK A01 T00321066  RH  049%=      5-min Rain = 0
KPD4 232317Z 32028KT 03/M07 A2996 RMK A01 T00311066  RH  049%=      5-min Rain = 0
KPD4 232318Z 32029KT 03/M07 A2996 RMK A01 T00311067  RH  049%=      5-min Rain = 0
KPD4 232319Z 31026KT 03/M07 A2997 RMK A01 T00301069  RH  048%=      5-min Rain = 0
KPD4 232320Z 32026KT 03/M07 A2996 RMK A01 T00301068  RH  049%=      5-min Rain = 0
KPD4 232321Z 32026KT 03/M07 A2997 RMK A01 T00301067  RH  049%=      5-min Rain = 0
KPD4 232322Z 32024G29KT 03/M07 A2997 RMK A01 T00301067  RH  049%=      5-min Rain = 0
KPD4 232323Z 32024KT 03/M07 A2997 RMK A01 T00301067  RH  049%=      5-min Rain = 0
KPD4 232324Z 32023KT 03/M07 A2996 RMK A01 T00301067  RH  049%=      5-min Rain = 0
KPD4 232325Z 32024G29KT 03/M07 A2997 RMK A01 T00301066  RH  049%=      5-min Rain = 0
KPD4 232326Z 32023KT 03/M07 A2997 RMK A01 T00301066  RH  049%=      5-min Rain = 0
KPD4 232327Z 32024KT 03/M07 A2997 RMK A01 T00301066  RH  049%=      5-min Rain = 0
KPD4 232328Z 32021KT 03/M07 A2997 RMK A01 T00301066  RH  049%=      5-min Rain = 0
KPD4 232329Z 33024G29KT 03/M07 A2997 RMK A01 T00301066  RH  049%=      5-min Rain = 0
KPD4 232330Z 32023KT 03/M07 A2997 RMK A01 T00301070  RH  048%=      5-min Rain = 0
KPD4 232331Z 32022G27KT 03/M07 A2997 RMK A01 T00291070  RH  048%=      5-min Rain = 0
KPD4 232332Z 32024KT 03/M07 A2997 RMK A01 T00291071  RH  048%=      5-min Rain = 0
KPD4 232333Z 32024G29KT 03/M07 A2998 RMK A01 T00281071  RH  048%=      5-min Rain = 0
KPD4 232334Z 32023KT 03/M07 A2998 RMK A01 T00281072  RH  048%=      5-min Rain = 0
KPD4 232335Z 31022G27KT 03/M07 A2998 RMK A01 T00281072  RH  048%=      5-min Rain = 0
KPD4 232336Z 32025G31KT 03/M07 A2998 RMK A01 T00281073  RH  048%=      5-min Rain = 0
KPD4 232337Z 32025G31KT 03/M08 A2998 RMK A01 T00271075  RH  047%=      5-min Rain = 0
KPD4 232338Z 32025KT 03/M08 A2998 RMK A01 T00261078  RH  046%=      5-min Rain = 0
KPD4 232339Z 32025KT 03/M08 A2998 RMK A01 T00261079  RH  046%=      5-min Rain = 0
KPD4 232340Z 33024KT 03/M08 A2999 RMK A01 T00261080  RH  046%=      5-min Rain = 0
KPD4 232341Z 32023KT 03/M08 A2999 RMK A01 T00261078  RH  046%=      5-min Rain = 0
KPD4 232342Z 32022KT 03/M08 A2999 RMK A01 T00251077  RH  047%=      5-min Rain = 0
KPD4 232343Z 32021KT 03/M08 A2999 RMK A01 T00251076  RH  047%=      5-min Rain = 0
KPD4 232344Z 32017KT 03/M07 A2999 RMK A01 T00251073  RH  048%=      5-min Rain = 0
KPD4 232345Z 32018KT 03/M07 A2999 RMK A01 T00251071  RH  049%=      5-min Rain = 0
KPD4 232346Z 32024KT 03/M07 A2999 RMK A01 T00261072  RH  049%=      5-min Rain = 0
KPD4 232347Z 32022KT 03/M08 A2999 RMK A01 T00251077  RH  047%=      5-min Rain = 0
KPD4 232348Z 32020KT 03/M08 A2999 RMK A01 T00251077  RH  047%=      5-min Rain = 0
KPD4 232349Z 33019KT 02/M08 A2999 RMK A01 T00241076  RH  048%=      5-min Rain = 0
KPD4 232350Z 32019KT 02/M08 A2999 RMK A01 T00241075  RH  048%=      5-min Rain = 0
KPD4 232351Z 32017KT 02/M07 A2999 RMK A01 T00241074  RH  048%=      5-min Rain = 0
KPD4 232352Z 33018KT 02/M07 A2999 RMK A01 T00231072  RH  049%=      5-min Rain = 0
KPD4 232353Z 32018G25KT 02/M07 A2999 RMK A01 T00231074  RH  049%=      5-min Rain = 0
KPD4 232354Z 32023KT 02/M08 A2999 RMK A01 T00231076  RH  048%=      5-min Rain = 0
KPD4 232355Z 33021KT 02/M08 A2999 RMK A01 T00221078  RH  048%=      5-min Rain = 0
KPD4 232356Z 33021KT 02/M08 A2999 RMK A01 T00221077  RH  048%=      5-min Rain = 0
KPD4 232357Z 33019KT 02/M08 A2999 RMK A01 T00211076  RH  048%=      5-min Rain = 0
KPD4 232358Z 33020G25KT 02/M08 A2999 RMK A01 T00211075  RH  049%=      5-min Rain = 0
KPD4 232359Z 32019G24KT 02/M08 A2999 RMK A01 T00211076  RH  049%=      5-min Rain = 0
KPD4 240000Z 33017KT 02/M08 A2999 RMK A01 T00201076  RH  049%=      5-min Rain = 0
KPD4 240001Z 33017KT 02/M08 A2999 RMK A01 T00201075  RH  049%=      5-min Rain = 0
KPD4 240002Z 33018KT 02/M08 A2999 RMK A01 T00191075  RH  050%=      5-min Rain = 0
KPD4 240003Z 33017KT 02/M08 A2999 RMK A01 T00191076  RH  050%=      5-min Rain = 0
KPD4 240004Z 33015G20KT 02/M08 A2999 RMK A01 T00181075  RH  050%=      5-min Rain = 0
KPD4 240005Z 33016KT 02/M08 A2999 RMK A01 T00171075  RH  050%=      5-min Rain = 0
KPD4 240006Z 33017KT 02/M08 A2999 RMK A01 T00171076  RH  050%=      5-min Rain = 0
KPD4 240007Z 33018KT 02/M08 A2999 RMK A01 T00171077  RH  050%=      5-min Rain = 0
KPD4 240008Z 33019KT 02/M08 A2999 RMK A01 T00171078  RH  049%=      5-min Rain = 0
KPD4 240009Z 33015KT 02/M08 A2999 RMK A01 T00161078  RH  050%=      5-min Rain = 0
KPD4 240010Z 33014KT 02/M08 A30 RMK A01 T00151076  RH  051%=      5-min Rain = 0
KPD4 240011Z 33015KT 01/M08 A30 RMK A01 T00141076  RH  051%=      5-min Rain = 0
KPD4 240012Z 33015KT 01/M08 A30 RMK A01 T00141076  RH  051%=      5-min Rain = 0
KPD4 240013Z 33015G20KT 01/M08 A30 RMK A01 T00131076  RH  051%=      5-min Rain = 0
KPD4 240014Z 33018KT 01/M08 A30 RMK A01 T00131077  RH  051%=      5-min Rain = 0
KPD4 240015Z 33019G25KT 01/M08 A30 RMK A01 T00131079  RH  050%=      5-min Rain = 0
KPD4 240016Z 33019KT 01/M08 A30 RMK A01 T00131080  RH  050%=      5-min Rain = 0
KPD4 240017Z 33019KT 01/M08 A30 RMK A01 T00131080  RH  050%=      5-min Rain = 0
KPD4 240018Z 33018KT 01/M08 A30 RMK A01 T00121080  RH  050%=      5-min Rain = 0
KPD4 240019Z 33018KT 01/M08 A30 RMK A01 T00121080  RH  050%=      5-min Rain = 0
KPD4 240020Z 33015KT 01/M08 A30 RMK A01 T00111080  RH  051%=      5-min Rain = 0
KPD4 240021Z 33015KT 01/M08 A30 RMK A01 T00101079  RH  051%=      5-min Rain = 0
KPD4 240022Z 33016KT 01/M08 A30 RMK A01 T00091079  RH  052%=      5-min Rain = 0
KPD4 240023Z 33019KT 01/M08 A30 RMK A01 T00091079  RH  052%=      5-min Rain = 0
KPD4 240024Z 33019KT 01/M08 A30 RMK A01 T00091080  RH  051%=      5-min Rain = 0
KPD4 240025Z 33017KT 01/M08 A3001 RMK A01 T00101081  RH  051%=      5-min Rain = 0
KPD4 240026Z 33017KT 01/M08 A3001 RMK A01 T00101081  RH  051%=      5-min Rain = 0
KPD4 240027Z 32016KT 01/M08 A3001 RMK A01 T00091081  RH  051%=      5-min Rain = 0
KPD4 240028Z 33015KT 01/M08 A3001 RMK A01 T00081081  RH  052%=      5-min Rain = 0
KPD4 240029Z 32015KT 01/M08 A3001 RMK A01 T00071080  RH  052%=      5-min Rain = 0
KPD4 240030Z 33016KT 01/M08 A3001 RMK A01 T00071080  RH  052%=      5-min Rain = 0
KPD4 240031Z 32014KT 01/M08 A3001 RMK A01 T00061079  RH  053%=      5-min Rain = 0
KPD4 240032Z 32014KT 01/M08 A3001 RMK A01 T00051079  RH  053%=      5-min Rain = 0
KPD4 240033Z 32013KT 00/M08 A3001 RMK A01 T00041078  RH  054%=      5-min Rain = 0
KPD4 240034Z 32015KT 00/M08 A3001 RMK A01 T00031078  RH  054%=      5-min Rain = 0
KPD4 240035Z 32013KT 00/M08 A3001 RMK A01 T00031077  RH  055%=      5-min Rain = 0
KPD4 240036Z 32014KT 00/M08 A3001 RMK A01 T00021077  RH  055%=      5-min Rain = 0
KPD4 240037Z 32014KT 00/M08 A3001 RMK A01 T00021077  RH  055%=      5-min Rain = 0
KPD4 240038Z 32014KT 00/M08 A3001 RMK A01 T00021077  RH  056%=      5-min Rain = 0
KPD4 240039Z 32013KT 00/M08 A3001 RMK A01 T00021076  RH  056%=      5-min Rain = 0
KPD4 240040Z 32014KT 00/M08 A3002 RMK A01 T00011076  RH  056%=      5-min Rain = 0
KPD4 240041Z 32014KT 00/M08 A3002 RMK A01 T00021076  RH  056%=      5-min Rain = 0
KPD4 240042Z 32013KT 00/M08 A3002 RMK A01 T00011076  RH  056%=      5-min Rain = 0
KPD4 240043Z 32013KT 00/M08 A3002 RMK A01 T00011076  RH  057%=      5-min Rain = 0
KPD4 240044Z 32012KT 00/08 A3002 RMK A01 T00-00-75  RH  057%=      5-min Rain = 0
KPD4 240045Z 31012KT M00/M07 A3002 RMK A01 T10011074  RH  058%=      5-min Rain = 0
KPD4 240046Z 32012KT M00/M07 A3002 RMK A01 T10021073  RH  058%=      5-min Rain = 0
KPD4 240047Z 32012KT M00/M07 A3002 RMK A01 T10021073  RH  059%=      5-min Rain = 0
KPD4 240048Z 32011KT M00/M07 A3002 RMK A01 T10031072  RH  060%=      5-min Rain = 0
KPD4 240049Z 31012KT M00/M07 A3002 RMK A01 T10031072  RH  060%=      5-min Rain = 0
KPD4 240050Z 31012KT M00/M07 A3002 RMK A01 T10041072  RH  060%=      5-min Rain = 0
KPD4 240051Z 32012KT M00/M07 A3003 RMK A01 T10041072  RH  060%=      5-min Rain = 0
KPD4 240052Z 32011KT M01/M07 A3003 RMK A01 T10051072  RH  060%=      5-min Rain = 0
KPD4 240053Z 31011KT M01/M07 A3003 RMK A01 T10061072  RH  061%=      5-min Rain = 0
KPD4 240054Z 31011KT M01/M07 A3003 RMK A01 T10071072  RH  061%=      5-min Rain = 0
KPD4 240055Z 31011KT M01/M07 A3003 RMK A01 T10071072  RH  061%=      5-min Rain = 0
KPD4 240056Z 31011KT M01/M07 A3003 RMK A01 T10081072  RH  062%=      5-min Rain = 0
KPD4 240057Z 31011KT M01/M07 A3003 RMK A01 T10081071  RH  062%=      5-min Rain = 0
KPD4 240058Z 31011KT M01/M07 A3003 RMK A01 T10091071  RH  063%=      5-min Rain = 0
KPD4 240059Z 31011KT M01/M07 A3003 RMK A01 T10091071  RH  063%=      5-min Rain = 0
KPD4 240100Z 31011KT M01/M07 A3003 RMK A01 T10101072  RH  063%=      5-min Rain = 0
KPD4 240101Z 31012KT M01/M07 A3003 RMK A01 T10101072  RH  063%=      5-min Rain = 0
KPD4 240102Z 32011KT M01/M07 A3003 RMK A01 T10101072  RH  062%=      5-min Rain = 0
KPD4 240103Z 31011KT M01/M07 A3003 RMK A01 T10091073  RH  062%=      5-min Rain = 0
KPD4 240104Z 31011KT M01/M07 A3003 RMK A01 T10091073  RH  062%=      5-min Rain = 0
KPD4 240105Z 31012KT M01/M07 A3003 RMK A01 T10091073  RH  062%=      5-min Rain = 0
KPD4 240106Z 31012KT M01/M07 A3003 RMK A01 T10091073  RH  062%=      5-min Rain = 0
KPD4 240107Z 31012KT M01/M07 A3004 RMK A01 T10091073  RH  062%=      5-min Rain = 0
KPD4 240108Z 31011KT M01/M07 A3004 RMK A01 T10091073  RH  062%=      5-min Rain = 0
KPD4 240109Z 32012KT M01/M07 A3004 RMK A01 T10091073  RH  062%=      5-min Rain = 0
KPD4 240110Z 32011KT M01/M07 A3004 RMK A01 T10091073  RH  062%=      5-min Rain = 0
KPD4 240111Z 32011KT M01/M07 A3004 RMK A01 T10091073  RH  062%=      5-min Rain = 0
KPD4 240112Z 32011KT M01/M07 A3004 RMK A01 T10101073  RH  062%=      5-min Rain = 0
KPD4 240113Z 32011KT M01/M07 A3004 RMK A01 T10101073  RH  062%=      5-min Rain = 0
KPD4 240114Z 31011KT M01/M07 A3004 RMK A01 T10111073  RH  063%=      5-min Rain = 0
KPD4 240115Z 31011KT M01/M07 A3004 RMK A01 T10111073  RH  063%=      5-min Rain = 0
KPD4 240116Z 32011KT M01/M07 A3004 RMK A01 T10121073  RH  063%=      5-min Rain = 0
KPD4 240117Z 32011KT M01/M07 A3004 RMK A01 T10121073  RH  063%=      5-min Rain = 0
KPD4 240118Z 32012KT M01/M07 A3004 RMK A01 T10121073  RH  063%=      5-min Rain = 0
KPD4 240119Z 31011KT M01/M07 A3004 RMK A01 T10131073  RH  063%=      5-min Rain = 0
KPD4 240120Z 32012KT M01/M07 A3004 RMK A01 T10121073  RH  063%=      5-min Rain = 0
KPD4 240121Z 31012KT M01/M07 A3004 RMK A01 T10121074  RH  063%=      5-min Rain = 0
KPD4 240122Z 32012KT M01/M07 A3003 RMK A01 T10121074  RH  063%=      5-min Rain = 0
KPD4 240123Z 32012KT M01/M07 A3003 RMK A01 T10121073  RH  063%=      5-min Rain = 0
KPD4 240124Z 32013KT M01/M07 A3003 RMK A01 T10121074  RH  063%=      5-min Rain = 0
KPD4 240125Z 32012KT M01/M07 A3003 RMK A01 T10121074  RH  063%=      5-min Rain = 0
KPD4 240126Z 32012KT M01/M07 A3004 RMK A01 T10121074  RH  063%=      5-min Rain = 0
KPD4 240127Z 31012KT M01/M07 A3004 RMK A01 T10121074  RH  063%=      5-min Rain = 0
KPD4 240128Z 31012KT M01/M07 A3004 RMK A01 T10121073  RH  063%=      5-min Rain = 0
KPD4 240129Z 31012KT M01/M07 A3004 RMK A01 T10131073  RH  064%=      5-min Rain = 0
KPD4 240130Z 31013KT M01/M07 A3004 RMK A01 T10141073  RH  064%=      5-min Rain = 0
KPD4 240131Z 31013KT M01/M07 A3004 RMK A01 T10141073  RH  064%=      5-min Rain = 0
KPD4 240132Z 31013KT M01/M07 A3004 RMK A01 T10141072  RH  065%=      5-min Rain = 0
KPD4 240133Z 31013KT M01/M07 A3004 RMK A01 T10141072  RH  064%=      5-min Rain = 0
KPD4 240134Z 31013KT M01/M07 A3004 RMK A01 T10121072  RH  064%=      5-min Rain = 0
KPD4 240135Z 31013KT M01/M07 A3004 RMK A01 T10121073  RH  063%=      5-min Rain = 0
KPD4 240136Z 31013KT M01/M07 A3004 RMK A01 T10121073  RH  063%=      5-min Rain = 0
KPD4 240137Z 31013KT M01/M07 A3005 RMK A01 T10111072  RH  063%=      5-min Rain = 0
KPD4 240138Z 31013KT M01/M07 A3005 RMK A01 T10101072  RH  063%=      5-min Rain = 0
KPD4 240139Z 31013KT M01/M07 A3005 RMK A01 T10101072  RH  063%=      5-min Rain = 0
KPD4 240140Z 31012KT M01/M07 A3005 RMK A01 T10101072  RH  063%=      5-min Rain = 0
KPD4 240141Z 31012KT M01/M07 A3005 RMK A01 T10111072  RH  063%=      5-min Rain = 0
KPD4 240142Z 31013KT M01/M07 A3005 RMK A01 T10121071  RH  064%=      5-min Rain = 0
KPD4 240143Z 31012KT M01/M07 A3005 RMK A01 T10131071  RH  065%=      5-min Rain = 0
KPD4 240144Z 31012KT M01/M07 A3005 RMK A01 T10131070  RH  065%=      5-min Rain = 0
KPD4 240145Z 31013KT M01/M07 A3005 RMK A01 T10141070  RH  066%=      5-min Rain = 0
KPD4 240146Z 31012KT M02/M07 A3005 RMK A01 T10151070  RH  066%=      5-min Rain = 0
KPD4 240147Z 30013KT M02/M07 A3005 RMK A01 T10151070  RH  066%=      5-min Rain = 0
KPD4 240148Z 31013KT M02/M07 A3006 RMK A01 T10151070  RH  066%=      5-min Rain = 0
KPD4 240149Z 31013KT M02/M07 A3005 RMK A01 T10161071  RH  066%=      5-min Rain = 0
KPD4 240150Z 31013KT M02/M07 A3005 RMK A01 T10161070  RH  066%=      5-min Rain = 0
KPD4 240151Z 31013KT M02/M07 A3006 RMK A01 T10161071  RH  066%=      5-min Rain = 0
KPD4 240152Z 31013KT M02/M07 A3006 RMK A01 T10161070  RH  067%=      5-min Rain = 0
KPD4 240153Z 31013KT M02/M07 A3006 RMK A01 T10171070  RH  067%=      5-min Rain = 0
KPD4 240154Z 30013KT M02/M07 A3006 RMK A01 T10171070  RH  067%=      5-min Rain = 0
KPD4 240155Z 30013KT M02/M07 A3006 RMK A01 T10171070  RH  067%=      5-min Rain = 0
KPD4 240156Z 30013KT M02/M07 A3006 RMK A01 T10181070  RH  067%=      5-min Rain = 0
KPD4 240157Z 30013KT M02/M07 A3006 RMK A01 T10181070  RH  068%=      5-min Rain = 0
KPD4 240158Z 30013KT M02/M07 A3006 RMK A01 T10181070  RH  068%=      5-min Rain = 0
KPD4 240159Z 30012KT M02/M07 A3006 RMK A01 T10181070  RH  068%=      5-min Rain = 0
KPD4 240200Z 30013KT M02/M07 A3006 RMK A01 T10181070  RH  068%=      5-min Rain = 0
KPD4 240201Z 30012KT M02/M07 A3006 RMK A01 T10191070  RH  068%=      5-min Rain = 0
KPD4 240202Z 30012KT M02/M07 A3006 RMK A01 T10191069  RH  069%=      5-min Rain = 0
KPD4 240203Z 30013KT M02/M07 A3006 RMK A01 T10191069  RH  069%=      5-min Rain = 0
KPD4 240204Z 30013KT M02/M07 A3006 RMK A01 T10191069  RH  069%=      5-min Rain = 0
KPD4 240205Z 30012KT M02/M07 A3006 RMK A01 T10201069  RH  069%=      5-min Rain = 0
KPD4 240206Z 30013KT M02/M07 A3006 RMK A01 T10201069  RH  069%=      5-min Rain = 0
KPD4 240207Z 31013KT M02/M07 A3006 RMK A01 T10201069  RH  069%=      5-min Rain = 0
KPD4 240208Z 30012KT M02/M07 A3006 RMK A01 T10201069  RH  069%=      5-min Rain = 0
KPD4 240209Z 30013KT M02/M07 A3006 RMK A01 T10201069  RH  069%=      5-min Rain = 0
KPD4 240210Z 30013KT M02/M07 A3006 RMK A01 T10201069  RH  069%=      5-min Rain = 0
KPD4 240211Z 31013KT M02/M07 A3006 RMK A01 T10201069  RH  069%=      5-min Rain = 0
KPD4 240212Z 30013KT M02/M07 A3006 RMK A01 T10201069  RH  069%=      5-min Rain = 0
KPD4 240213Z 30013KT M02/M07 A3006 RMK A01 T10201069  RH  069%=      5-min Rain = 0
KPD4 240214Z 30013KT M02/M07 A3007 RMK A01 T10201069  RH  069%=      5-min Rain = 0
KPD4 240215Z 30013KT M02/M07 A3007 RMK A01 T10211069  RH  069%=      5-min Rain = 0
KPD4 240216Z 31013KT M02/M07 A3007 RMK A01 T10211069  RH  070%=      5-min Rain = 0
KPD4 240217Z 31013KT M02/M07 A3007 RMK A01 T10221069  RH  070%=      5-min Rain = 0
KPD4 240218Z 31013KT M02/M07 A3007 RMK A01 T10211069  RH  070%=      5-min Rain = 0
KPD4 240219Z 31013KT M02/M07 A3007 RMK A01 T10211069  RH  070%=      5-min Rain = 0
KPD4 240220Z 31013KT M02/M07 A3007 RMK A01 T10211068  RH  070%=      5-min Rain = 0
KPD4 240221Z 31013KT M02/M07 A3007 RMK A01 T10211068  RH  070%=      5-min Rain = 0
KPD4 240222Z 31013KT M02/M07 A3007 RMK A01 T10211068  RH  070%=      5-min Rain = 0
KPD4 240223Z 31013KT M02/M07 A3007 RMK A01 T10211068  RH  070%=      5-min Rain = 0
KPD4 240224Z 31013KT M02/M07 A3007 RMK A01 T10211068  RH  070%=      5-min Rain = 0
KPD4 240225Z 31013KT M02/M07 A3007 RMK A01 T10211067  RH  070%=      5-min Rain = 0
KPD4 240226Z 31013KT M02/M07 A3007 RMK A01 T10211068  RH  070%=      5-min Rain = 0
KPD4 240227Z 31013KT M02/M07 A3007 RMK A01 T10211068  RH  070%=      5-min Rain = 0
KPD4 240228Z 32012KT M02/M07 A3007 RMK A01 T10221068  RH  070%=      5-min Rain = 0
KPD4 240229Z 32013KT M02/M07 A3007 RMK A01 T10211069  RH  070%=      5-min Rain = 0
KPD4 240230Z 32013KT M02/M07 A3007 RMK A01 T10211069  RH  069%=      5-min Rain = 0
KPD4 240231Z 32013KT M02/M07 A3007 RMK A01 T10201069  RH  069%=      5-min Rain = 0
KPD4 240232Z 32013KT M02/M07 A3007 RMK A01 T10191069  RH  069%=      5-min Rain = 0
KPD4 240233Z 32013KT M02/M07 A3007 RMK A01 T10181069  RH  068%=      5-min Rain = 0
KPD4 240234Z 32013KT M02/M07 A3007 RMK A01 T10191070  RH  068%=      5-min Rain = 0
KPD4 240235Z 32012KT M02/M07 A3007 RMK A01 T10181070  RH  068%=      5-min Rain = 0
KPD4 240236Z 32013KT M02/M07 A3007 RMK A01 T10181070  RH  068%=      5-min Rain = 0
KPD4 240237Z 31012KT M02/M07 A3007 RMK A01 T10191070  RH  068%=      5-min Rain = 0
KPD4 240238Z 31012KT M02/M07 A3007 RMK A01 T10191069  RH  068%=      5-min Rain = 0
KPD4 240239Z 31012KT M02/M07 A3007 RMK A01 T10201070  RH  069%=      5-min Rain = 0
KPD4 240240Z 31012KT M02/M07 A3008 RMK A01 T10201070  RH  069%=      5-min Rain = 0
KPD4 240241Z 31012KT M02/M07 A3008 RMK A01 T10201069  RH  069%=      5-min Rain = 0
KPD4 240242Z 31012KT M02/M07 A3008 RMK A01 T10201069  RH  069%=      5-min Rain = 0
KPD4 240243Z 31011KT M02/M07 A3008 RMK A01 T10191069  RH  069%=      5-min Rain = 0
KPD4 240244Z 31011KT M02/M07 A3008 RMK A01 T10201069  RH  069%=      5-min Rain = 0
KPD4 240245Z 31011KT M02/M07 A3008 RMK A01 T10201069  RH  069%=      5-min Rain = 0
KPD4 240246Z 31010KT M02/M07 A3008 RMK A01 T10211070  RH  069%=      5-min Rain = 0
KPD4 240247Z 31011KT M02/M07 A3008 RMK A01 T10211070  RH  069%=      5-min Rain = 0
KPD4 240248Z 31010KT M02/M07 A3008 RMK A01 T10211070  RH  069%=      5-min Rain = 0
KPD4 240249Z 31010KT M02/M07 A3008 RMK A01 T10211069  RH  069%=      5-min Rain = 0
KPD4 240250Z 31011KT M02/M07 A3008 RMK A01 T10211070  RH  070%=      5-min Rain = 0
KPD4 240251Z 31010KT M02/M07 A3008 RMK A01 T10211069  RH  070%=      5-min Rain = 0
KPD4 240252Z 31010KT M02/M07 A3009 RMK A01 T10221069  RH  070%=      5-min Rain = 0
KPD4 240253Z 31010KT M02/M07 A3009 RMK A01 T10231069  RH  071%=      5-min Rain = 0
KPD4 240254Z 31010KT M02/M07 A3009 RMK A01 T10231069  RH  071%=      5-min Rain = 0
KPD4 240255Z 31010KT M02/M07 A3009 RMK A01 T10241069  RH  071%=      5-min Rain = 0
KPD4 240256Z 30010KT M02/M07 A3009 RMK A01 T10241069  RH  071%=      5-min Rain = 0
KPD4 240257Z 30010KT M02/M07 A3009 RMK A01 T10241069  RH  071%=      5-min Rain = 0
KPD4 240258Z 30010KT M02/M07 A3009 RMK A01 T10241069  RH  071%=      5-min Rain = 0
KPD4 240259Z 30010KT M03/M07 A301 RMK A01 T10251070  RH  071%=      5-min Rain = 0
KPD4 240300Z 30010KT M03/M07 A301 RMK A01 T10251070  RH  071%=      5-min Rain = 0
KPD4 240301Z 29010KT M03/M07 A301 RMK A01 T10261070  RH  072%=      5-min Rain = 0
KPD4 240302Z 29010KT M03/M07 A301 RMK A01 T10281070  RH  073%=      5-min Rain = 0
KPD4 240303Z 29011KT M03/M07 A301 RMK A01 T10291070  RH  074%=      5-min Rain = 0
KPD4 240304Z 29011KT M03/M07 A301 RMK A01 T10301069  RH  074%=      5-min Rain = 0
KPD4 240305Z 30012KT M03/M07 A301 RMK A01 T10301069  RH  075%=      5-min Rain = 0
KPD4 240306Z 30011KT M03/M07 A301 RMK A01 T10311069  RH  075%=      5-min Rain = 0
KPD4 240307Z 30012KT M03/M07 A301 RMK A01 T10311069  RH  075%=      5-min Rain = 0
KPD4 240308Z 30012KT M03/M07 A301 RMK A01 T10311070  RH  075%=      5-min Rain = 0
KPD4 240309Z 30012KT M03/M07 A301 RMK A01 T10311070  RH  075%=      5-min Rain = 0
KPD4 240310Z 30012KT M03/M07 A301 RMK A01 T10311070  RH  075%=      5-min Rain = 0
KPD4 240311Z 30012KT M03/M07 A301 RMK A01 T10311070  RH  074%=      5-min Rain = 0
KPD4 240312Z 30013KT M03/M07 A301 RMK A01 T10311071  RH  074%=      5-min Rain = 0
KPD4 240313Z 30013KT M03/M07 A301 RMK A01 T10301071  RH  074%=      5-min Rain = 0
KPD4 240314Z 30013KT M03/M07 A301 RMK A01 T10301071  RH  073%=      5-min Rain = 0
KPD4 240315Z 30013KT M03/M07 A301 RMK A01 T10291071  RH  073%=      5-min Rain = 0
KPD4 240316Z 31013KT M03/M07 A301 RMK A01 T10291071  RH  073%=      5-min Rain = 0
KPD4 240317Z 31013KT M03/M07 A301 RMK A01 T10291071  RH  073%=      5-min Rain = 0
KPD4 240318Z 31013KT M03/M07 A301 RMK A01 T10291071  RH  073%=      5-min Rain = 0
KPD4 240319Z 31013KT M03/M07 A301 RMK A01 T10281070  RH  073%=      5-min Rain = 0
KPD4 240320Z 31013KT M03/M07 A301 RMK A01 T10281070  RH  073%=      5-min Rain = 0
KPD4 240321Z 31013KT M03/M07 A301 RMK A01 T10281070  RH  073%=      5-min Rain = 0
KPD4 240322Z 31013KT M03/M07 A301 RMK A01 T10281071  RH  072%=      5-min Rain = 0
KPD4 240323Z 31013KT M03/M07 A301 RMK A01 T10271071  RH  072%=      5-min Rain = 0
KPD4 240324Z 31013KT M03/M07 A301 RMK A01 T10271071  RH  072%=      5-min Rain = 0
KPD4 240325Z 31013KT M03/M07 A301 RMK A01 T10271071  RH  072%=      5-min Rain = 0
KPD4 240326Z 31013KT M03/M07 A301 RMK A01 T10271071  RH  072%=      5-min Rain = 0
KPD4 240327Z 31013KT M03/M07 A301 RMK A01 T10271071  RH  071%=      5-min Rain = 0
KPD4 240328Z 31013KT M03/M07 A301 RMK A01 T10261071  RH  071%=      5-min Rain = 0
KPD4 240329Z 31013KT M03/M07 A301 RMK A01 T10261071  RH  071%=      5-min Rain = 0
KPD4 240330Z 31013KT M03/M07 A301 RMK A01 T10261071  RH  071%=      5-min Rain = 0
KPD4 240331Z 31012KT M03/M07 A301 RMK A01 T10271071  RH  072%=      5-min Rain = 0
KPD4 240332Z 31013KT M03/M07 A301 RMK A01 T10271071  RH  072%=      5-min Rain = 0
KPD4 240333Z 31013KT M03/M07 A301 RMK A01 T10261071  RH  072%=      5-min Rain = 0
KPD4 240334Z 31014KT M03/M07 A301 RMK A01 T10261071  RH  071%=      5-min Rain = 0
KPD4 240335Z 31014KT M03/M07 A301 RMK A01 T10251071  RH  071%=      5-min Rain = 0
KPD4 240336Z 31014KT M02/M07 A301 RMK A01 T10241071  RH  070%=      5-min Rain = 0
KPD4 240337Z 31014KT M02/M07 A301 RMK A01 T10231072  RH  069%=      5-min Rain = 0
KPD4 240338Z 31014KT M02/M07 A301 RMK A01 T10231072  RH  069%=      5-min Rain = 0
KPD4 240339Z 31014KT M02/M07 A301 RMK A01 T10221072  RH  069%=      5-min Rain = 0
KPD4 240340Z 31014KT M02/M07 A301 RMK A01 T10221072  RH  068%=      5-min Rain = 0
KPD4 240341Z 31014KT M02/M07 A301 RMK A01 T10211072  RH  068%=      5-min Rain = 0
KPD4 240342Z 31014KT M02/M07 A301 RMK A01 T10211072  RH  068%=      5-min Rain = 0
KPD4 240343Z 31014KT M02/M07 A301 RMK A01 T10211072  RH  068%=      5-min Rain = 0
KPD4 240344Z 31014KT M02/M07 A3011 RMK A01 T10201072  RH  068%=      5-min Rain = 0
KPD4 240345Z 31014KT M02/M07 A3011 RMK A01 T10201072  RH  067%=      5-min Rain = 0
KPD4 240346Z 31014KT M02/M07 A3011 RMK A01 T10201073  RH  067%=      5-min Rain = 0
KPD4 240347Z 31014KT M02/M07 A3011 RMK A01 T10201073  RH  067%=      5-min Rain = 0
KPD4 240348Z 31014KT M02/M07 A3011 RMK A01 T10201073  RH  067%=      5-min Rain = 0
KPD4 240349Z 31013KT M02/M07 A3011 RMK A01 T10201073  RH  067%=      5-min Rain = 0
KPD4 240350Z 32013KT M02/M07 A3011 RMK A01 T10201073  RH  067%=      5-min Rain = 0
KPD4 240351Z 31014KT M02/M07 A3011 RMK A01 T10201073  RH  067%=      5-min Rain = 0
KPD4 240352Z 32013KT M02/M07 A3011 RMK A01 T10191074  RH  066%=      5-min Rain = 0
KPD4 240353Z 31013KT M02/M07 A3011 RMK A01 T10191074  RH  066%=      5-min Rain = 0
KPD4 240354Z 32014KT M02/M07 A3012 RMK A01 T10191074  RH  066%=      5-min Rain = 0
KPD4 240355Z 31014KT M02/M07 A3012 RMK A01 T10191074  RH  066%=      5-min Rain = 0
KPD4 240356Z 31014KT M02/M07 A3012 RMK A01 T10191074  RH  066%=      5-min Rain = 0
KPD4 240357Z 31014KT M02/M07 A3012 RMK A01 T10191074  RH  066%=      5-min Rain = 0
KPD4 240358Z 31013KT M02/M07 A3012 RMK A01 T10181074  RH  066%=      5-min Rain = 0
KPD4 240359Z 31013KT M02/M07 A3012 RMK A01 T10181074  RH  066%=      5-min Rain = 0
KPD4 240400Z 31013KT M02/M08 A3012 RMK A01 T10191075  RH  066%=      5-min Rain = 0
KPD4 240401Z 31013KT M02/M08 A3012 RMK A01 T10191075  RH  065%=      5-min Rain = 0
KPD4 240402Z 31012KT M02/M08 A3012 RMK A01 T10191075  RH  065%=      5-min Rain = 0
KPD4 240403Z 31012KT M02/M08 A3012 RMK A01 T10191075  RH  065%=      5-min Rain = 0
KPD4 240404Z 31012KT M02/M08 A3012 RMK A01 T10191075  RH  065%=      5-min Rain = 0
KPD4 240405Z 31012KT M02/M08 A3012 RMK A01 T10191075  RH  065%=      5-min Rain = 0
KPD4 240406Z 32012KT M02/M08 A3013 RMK A01 T10181076  RH  065%=      5-min Rain = 0
KPD4 240407Z 32012KT M02/M08 A3013 RMK A01 T10191076  RH  065%=      5-min Rain = 0
KPD4 240408Z 31011KT M02/M08 A3013 RMK A01 T10191076  RH  065%=      5-min Rain = 0
KPD4 240409Z 32011KT M02/M08 A3013 RMK A01 T10191076  RH  065%=      5-min Rain = 0
KPD4 240410Z 32011KT M02/M08 A3013 RMK A01 T10191076  RH  065%=      5-min Rain = 0
KPD4 240411Z 31012KT M02/M08 A3013 RMK A01 T10201076  RH  065%=      5-min Rain = 0
KPD4 240412Z 32011KT M02/M08 A3013 RMK A01 T10201077  RH  065%=      5-min Rain = 0
KPD4 240413Z 32012KT M02/M08 A3013 RMK A01 T10201077  RH  065%=      5-min Rain = 0
KPD4 240414Z 32011KT M02/M08 A3013 RMK A01 T10191077  RH  065%=      5-min Rain = 0
KPD4 240415Z 31012KT M02/M08 A3013 RMK A01 T10201077  RH  065%=      5-min Rain = 0
KPD4 240416Z 32011KT M02/M08 A3014 RMK A01 T10201077  RH  065%=      5-min Rain = 0
KPD4 240417Z 32011KT M02/M08 A3014 RMK A01 T10201077  RH  065%=      5-min Rain = 0
KPD4 240418Z 32011KT M02/M08 A3014 RMK A01 T10201077  RH  065%=      5-min Rain = 0
KPD4 240419Z 32011KT M02/M08 A3014 RMK A01 T10201077  RH  065%=      5-min Rain = 0
KPD4 240420Z 32011KT M02/M08 A3014 RMK A01 T10211077  RH  065%=      5-min Rain = 0
KPD4 240421Z 32011KT M02/M08 A3014 RMK A01 T10211077  RH  065%=      5-min Rain = 0
KPD4 240422Z 32011KT M02/M08 A3014 RMK A01 T10221078  RH  066%=      5-min Rain = 0
KPD4 240423Z 32011KT M02/M08 A3014 RMK A01 T10221077  RH  066%=      5-min Rain = 0
KPD4 240424Z 32011KT M02/M08 A3014 RMK A01 T10221077  RH  066%=      5-min Rain = 0
KPD4 240425Z 32011KT M02/M08 A3014 RMK A01 T10221077  RH  066%=      5-min Rain = 0
KPD4 240426Z 32010KT M02/M08 A3015 RMK A01 T10231077  RH  066%=      5-min Rain = 0
KPD4 240427Z 32010KT M02/M08 A3015 RMK A01 T10231078  RH  066%=      5-min Rain = 0
KPD4 240428Z 32010KT M02/M08 A3015 RMK A01 T10241078  RH  066%=      5-min Rain = 0
KPD4 240429Z 32011KT M02/M08 A3015 RMK A01 T10241078  RH  067%=      5-min Rain = 0
KPD4 240430Z 32010KT M03/M08 A3015 RMK A01 T10251079  RH  066%=      5-min Rain = 0
KPD4 240431Z 32010KT M02/M08 A3015 RMK A01 T10241079  RH  066%=      5-min Rain = 0
KPD4 240432Z 32010KT M02/M08 A3015 RMK A01 T10241078  RH  066%=      5-min Rain = 0
KPD4 240433Z 32010KT M02/M08 A3015 RMK A01 T10241078  RH  066%=      5-min Rain = 0
KPD4 240434Z 33010KT M02/M08 A3015 RMK A01 T10241079  RH  066%=      5-min Rain = 0
KPD4 240435Z 33010KT M03/M08 A3015 RMK A01 T10251079  RH  066%=      5-min Rain = 0
KPD4 240436Z 33010KT M03/M08 A3015 RMK A01 T10251079  RH  066%=      5-min Rain = 0
KPD4 240437Z 33010KT M03/M08 A3015 RMK A01 T10251079  RH  066%=      5-min Rain = 0
KPD4 240438Z 33011KT M03/M08 A3015 RMK A01 T10261079  RH  067%=      5-min Rain = 0
KPD4 240439Z 33010KT M03/M08 A3015 RMK A01 T10271080  RH  067%=      5-min Rain = 0
KPD4 240440Z 33010KT M03/M08 A3015 RMK A01 T10271079  RH  067%=      5-min Rain = 0
KPD4 240441Z 33010KT M03/M08 A3015 RMK A01 T10271079  RH  068%=      5-min Rain = 0
KPD4 240442Z 33010KT M03/M08 A3015 RMK A01 T10291079  RH  068%=      5-min Rain = 0
KPD4 240443Z 33009KT M03/M08 A3015 RMK A01 T10301079  RH  069%=      5-min Rain = 0
KPD4 240444Z 33010KT M03/M08 A3015 RMK A01 T10311080  RH  069%=      5-min Rain = 0
KPD4 240445Z 33010KT M03/M08 A3016 RMK A01 T10321080  RH  070%=      5-min Rain = 0
KPD4 240446Z 33010KT M03/M08 A3016 RMK A01 T10331079  RH  070%=      5-min Rain = 0
KPD4 240447Z 33010KT M03/M08 A3016 RMK A01 T10331079  RH  070%=      5-min Rain = 0
KPD4 240448Z 33010KT M03/M08 A3016 RMK A01 T10331080  RH  070%=      5-min Rain = 0
KPD4 240449Z 33009KT M03/M08 A3016 RMK A01 T10341080  RH  071%=      5-min Rain = 0
KPD4 240450Z 33009KT M04/M08 A3016 RMK A01 T10351080  RH  071%=      5-min Rain = 0
KPD4 240451Z 33009KT M04/M08 A3016 RMK A01 T10351080  RH  071%=      5-min Rain = 0
KPD4 240452Z 32008KT M04/M08 A3016 RMK A01 T10371080  RH  072%=      5-min Rain = 0
KPD4 240453Z 32009KT M04/M08 A3016 RMK A01 T10381081  RH  072%=      5-min Rain = 0
KPD4 240454Z 32008KT M04/M08 A3017 RMK A01 T10391081  RH  073%=      5-min Rain = 0
KPD4 240455Z 31009KT M04/M08 A3017 RMK A01 T10401081  RH  073%=      5-min Rain = 0
KPD4 240456Z 31008KT M04/M08 A3017 RMK A01 T10421081  RH  074%=      5-min Rain = 0
KPD4 240457Z 31008KT M04/M08 A3017 RMK A01 T10431082  RH  074%=      5-min Rain = 0
KPD4 240458Z 31008KT M05/M08 A3017 RMK A01 T10451083  RH  075%=      5-min Rain = 0
KPD4 240459Z 31008KT M05/M08 A3017 RMK A01 T10461083  RH  076%=      5-min Rain = 0
KPD4 240500Z 31008KT M05/M08 A3017 RMK A01 T10471082  RH  076%=      5-min Rain = 0
KPD4 240501Z 31009KT M05/M08 A3017 RMK A01 T10471082  RH  077%=      5-min Rain = 0
KPD4 240502Z 31008KT M05/M08 A3017 RMK A01 T10481083  RH  077%=      5-min Rain = 0
KPD4 240503Z 31008KT M05/M08 A3017 RMK A01 T10491083  RH  077%=      5-min Rain = 0
KPD4 240504Z 31008KT M05/M08 A3017 RMK A01 T10501083  RH  077%=      5-min Rain = 0
KPD4 240505Z 32008KT M05/M08 A3017 RMK A01 T10501083  RH  078%=      5-min Rain = 0
KPD4 240506Z 32008KT M05/M08 A3017 RMK A01 T10511083  RH  078%=      5-min Rain = 0
KPD4 240507Z 32008KT M05/M08 A3017 RMK A01 T10511083  RH  078%=      5-min Rain = 0
KPD4 240508Z 32008KT M05/M08 A3017 RMK A01 T10511082  RH  078%=      5-min Rain = 0
KPD4 240509Z 32008KT M05/M08 A3017 RMK A01 T10501081  RH  078%=      5-min Rain = 0
KPD4 240510Z 32008KT M05/M08 A3017 RMK A01 T10491081  RH  078%=      5-min Rain = 0
KPD4 240511Z 32008KT M05/M08 A3017 RMK A01 T10481081  RH  078%=      5-min Rain = 0
KPD4 240512Z 32008KT M05/M08 A3017 RMK A01 T10471080  RH  077%=      5-min Rain = 0
KPD4 240513Z 32008KT M05/M08 A3017 RMK A01 T10461080  RH  077%=      5-min Rain = 0
KPD4 240514Z 32008KT M04/M08 A3017 RMK A01 T10441080  RH  076%=      5-min Rain = 0
KPD4 240515Z 32008KT M04/M08 A3017 RMK A01 T10421079  RH  076%=      5-min Rain = 0
KPD4 240516Z 32008KT M04/M08 A3017 RMK A01 T10421080  RH  075%=      5-min Rain = 0
KPD4 240517Z 32008KT M04/M08 A3017 RMK A01 T10411080  RH  074%=      5-min Rain = 0
KPD4 240518Z 33009KT M04/M08 A3017 RMK A01 T10401080  RH  074%=      5-min Rain = 0
KPD4 240519Z 33009KT M04/M08 A3017 RMK A01 T10401081  RH  073%=      5-min Rain = 0
KPD4 240520Z 33009KT M04/M08 A3017 RMK A01 T10401081  RH  073%=      5-min Rain = 0
KPD4 240521Z 33009KT M04/M08 A3017 RMK A01 T10401082  RH  073%=      5-min Rain = 0
KPD4 240522Z 34010KT M04/M08 A3017 RMK A01 T10401082  RH  073%=      5-min Rain = 0
KPD4 240523Z 34010KT M04/M08 A3017 RMK A01 T10391081  RH  072%=      5-min Rain = 0
KPD4 240524Z 34010KT M04/M08 A3017 RMK A01 T10381081  RH  072%=      5-min Rain = 0
KPD4 240525Z 34010KT M04/M08 A3017 RMK A01 T10371081  RH  071%=      5-min Rain = 0
KPD4 240526Z 34010KT M04/M08 A3017 RMK A01 T10361081  RH  071%=      5-min Rain = 0
KPD4 240527Z 34010KT M03/M08 A3017 RMK A01 T10341081  RH  070%=      5-min Rain = 0
KPD4 240528Z 34010KT M03/M08 A3017 RMK A01 T10341081  RH  070%=      5-min Rain = 0
KPD4 240529Z 34010KT M03/M08 A3017 RMK A01 T10341082  RH  070%=      5-min Rain = 0
KPD4 240530Z 34010KT M03/M08 A3017 RMK A01 T10341082  RH  069%=      5-min Rain = 0
KPD4 240531Z 34010KT M03/M08 A3017 RMK A01 T10341082  RH  069%=      5-min Rain = 0
KPD4 240532Z 34010KT M03/M08 A3017 RMK A01 T10341082  RH  069%=      5-min Rain = 0
KPD4 240533Z 34010KT M04/M08 A3017 RMK A01 T10351082  RH  069%=      5-min Rain = 0
KPD4 240534Z 34010KT M04/M08 A3017 RMK A01 T10351083  RH  070%=      5-min Rain = 0
KPD4 240535Z 34009KT M04/M08 A3017 RMK A01 T10351083  RH  069%=      5-min Rain = 0
KPD4 240536Z 34009KT M04/M08 A3017 RMK A01 T10351083  RH  070%=      5-min Rain = 0
KPD4 240537Z 34009KT M04/M08 A3017 RMK A01 T10361083  RH  070%=      5-min Rain = 0
KPD4 240538Z 34009KT M04/M08 A3017 RMK A01 T10371084  RH  070%=      5-min Rain = 0
KPD4 240539Z 34010KT M04/M08 A3017 RMK A01 T10381084  RH  070%=      5-min Rain = 0
KPD4 240540Z 34010KT M04/M08 A3017 RMK A01 T10391084  RH  071%=      5-min Rain = 0
KPD4 240541Z 34010KT M04/M08 A3017 RMK A01 T10391084  RH  071%=      5-min Rain = 0
KPD4 240542Z 34010KT M04/M08 A3017 RMK A01 T10401084  RH  072%=      5-min Rain = 0
KPD4 240543Z 34010KT M04/M08 A3017 RMK A01 T10411084  RH  072%=      5-min Rain = 0
KPD4 240544Z 34010KT M04/M08 A3017 RMK A01 T10411083  RH  073%=      5-min Rain = 0
KPD4 240545Z 34011KT M04/M08 A3017 RMK A01 T10421083  RH  073%=      5-min Rain = 0
KPD4 240546Z 34011KT M04/M08 A3017 RMK A01 T10421083  RH  073%=      5-min Rain = 0
KPD4 240547Z 34011KT M04/M08 A3017 RMK A01 T10421082  RH  074%=      5-min Rain = 0
KPD4 240548Z 34011KT M04/M08 A3017 RMK A01 T10421082  RH  074%=      5-min Rain = 0
KPD4 240549Z 34011KT M04/M08 A3017 RMK A01 T10431081  RH  074%=      5-min Rain = 0
KPD4 240550Z 35012KT M04/M08 A3017 RMK A01 T10431081  RH  075%=      5-min Rain = 0
KPD4 240551Z 35012KT M04/M08 A3017 RMK A01 T10431081  RH  075%=      5-min Rain = 0
KPD4 240552Z 35012KT M04/M08 A3017 RMK A01 T10421080  RH  075%=      5-min Rain = 0
KPD4 240553Z 35012KT M04/M08 A3017 RMK A01 T10421080  RH  075%=      5-min Rain = 0
KPD4 240554Z 35012KT M04/M08 A3017 RMK A01 T10411080  RH  074%=      5-min Rain = 0
KPD4 240555Z 35012KT M04/M08 A3017 RMK A01 T10401080  RH  074%=      5-min Rain = 0
KPD4 240556Z 35012KT M04/M08 A3017 RMK A01 T10401080  RH  074%=      5-min Rain = 0
KPD4 240557Z 34012KT M04/M08 A3017 RMK A01 T10401080  RH  073%=      5-min Rain = 0
KPD4 240558Z 34012KT M04/M08 A3017 RMK A01 T10401080  RH  073%=      5-min Rain = 0
KPD4 240559Z 34012KT M04/M08 A3017 RMK A01 T10401080  RH  073%=      5-min Rain = 0

Page generated in 0.07 seconds.